<?xml version="1.0" encoding="UTF-8" standalone="no" ?>
<gpx xmlns="http://www.topografix.com/GPX/1/1" xmlns:xsi="http://www.w3.org/2001/XMLSchema-instance" xsi:schemaLocation="http://www.topografix.com/GPX/1/1 http://www.topografix.com/GPX/1/1/gpx.xsd" version="1.1" creator="VisuGPX - https://www.visugpx.com">
  <metadata>
    <name>Tracé actuel: 28 JUIL 2020 12:51</name>
    <desc><![CDATA[randonnée impeccable par contre déçu de la voie verte ça devient un vélodrome
]]></desc>
  </metadata>
  <trk>
    <name><![CDATA[Tracé actuel: 28 JUIL 2020 12:51]]></name>
    <trkseg>
      <trkpt lat="49.63453" lon="4.98045">
        <ele>173.66</ele>
        <time>2020-07-28T10:51:15Z</time>
      </trkpt>
      <trkpt lat="49.63455" lon="4.98029">
        <ele>170.29</ele>
        <time>2020-07-28T10:52:03Z</time>
      </trkpt>
      <trkpt lat="49.63457" lon="4.98021">
        <ele>171.25</ele>
        <time>2020-07-28T10:52:24Z</time>
      </trkpt>
      <trkpt lat="49.63456" lon="4.98044">
        <ele>176.06</ele>
        <time>2020-07-28T10:52:46Z</time>
      </trkpt>
      <trkpt lat="49.63449" lon="4.98047">
        <ele>173.66</ele>
        <time>2020-07-28T10:52:55Z</time>
      </trkpt>
      <trkpt lat="49.63441" lon="4.98042">
        <ele>171.73</ele>
        <time>2020-07-28T10:53:05Z</time>
      </trkpt>
      <trkpt lat="49.6343" lon="4.98029">
        <ele>171.73</ele>
        <time>2020-07-28T10:53:19Z</time>
      </trkpt>
      <trkpt lat="49.63429" lon="4.98029">
        <ele>171.25</ele>
        <time>2020-07-28T10:53:20Z</time>
      </trkpt>
      <trkpt lat="49.6342" lon="4.98021">
        <ele>172.69</ele>
        <time>2020-07-28T10:53:31Z</time>
      </trkpt>
      <trkpt lat="49.63412" lon="4.98012">
        <ele>174.62</ele>
        <time>2020-07-28T10:53:43Z</time>
      </trkpt>
      <trkpt lat="49.63403" lon="4.97999">
        <ele>177.98</ele>
        <time>2020-07-28T10:53:58Z</time>
      </trkpt>
      <trkpt lat="49.63397" lon="4.97989">
        <ele>177.5</ele>
        <time>2020-07-28T10:54:06Z</time>
      </trkpt>
      <trkpt lat="49.63393" lon="4.97985">
        <ele>176.54</ele>
        <time>2020-07-28T10:54:10Z</time>
      </trkpt>
      <trkpt lat="49.6339" lon="4.97982">
        <ele>175.58</ele>
        <time>2020-07-28T10:54:13Z</time>
      </trkpt>
      <trkpt lat="49.63389" lon="4.97978">
        <ele>175.58</ele>
        <time>2020-07-28T10:54:16Z</time>
      </trkpt>
      <trkpt lat="49.63385" lon="4.97962">
        <ele>172.69</ele>
        <time>2020-07-28T10:54:29Z</time>
      </trkpt>
      <trkpt lat="49.63384" lon="4.97952">
        <ele>171.73</ele>
        <time>2020-07-28T10:54:38Z</time>
      </trkpt>
      <trkpt lat="49.6339" lon="4.97941">
        <ele>170.77</ele>
        <time>2020-07-28T10:54:45Z</time>
      </trkpt>
      <trkpt lat="49.63393" lon="4.97938">
        <ele>170.29</ele>
        <time>2020-07-28T10:54:48Z</time>
      </trkpt>
      <trkpt lat="49.63397" lon="4.97936">
        <ele>169.81</ele>
        <time>2020-07-28T10:54:52Z</time>
      </trkpt>
      <trkpt lat="49.63402" lon="4.97934">
        <ele>169.81</ele>
        <time>2020-07-28T10:54:56Z</time>
      </trkpt>
      <trkpt lat="49.63413" lon="4.9792">
        <ele>172.21</ele>
        <time>2020-07-28T10:55:12Z</time>
      </trkpt>
      <trkpt lat="49.63421" lon="4.97909">
        <ele>177.98</ele>
        <time>2020-07-28T10:55:25Z</time>
      </trkpt>
      <trkpt lat="49.63434" lon="4.97905">
        <ele>183.27</ele>
        <time>2020-07-28T10:55:37Z</time>
      </trkpt>
      <trkpt lat="49.63445" lon="4.97898">
        <ele>187.59</ele>
        <time>2020-07-28T10:55:50Z</time>
      </trkpt>
      <trkpt lat="49.63451" lon="4.97885">
        <ele>192.88</ele>
        <time>2020-07-28T10:56:01Z</time>
      </trkpt>
      <trkpt lat="49.63453" lon="4.97881">
        <ele>194.32</ele>
        <time>2020-07-28T10:56:05Z</time>
      </trkpt>
      <trkpt lat="49.63458" lon="4.97876">
        <ele>195.28</ele>
        <time>2020-07-28T10:56:09Z</time>
      </trkpt>
      <trkpt lat="49.63474" lon="4.97861">
        <ele>192.88</ele>
        <time>2020-07-28T10:56:24Z</time>
      </trkpt>
      <trkpt lat="49.63482" lon="4.97848">
        <ele>187.11</ele>
        <time>2020-07-28T10:56:39Z</time>
      </trkpt>
      <trkpt lat="49.63488" lon="4.97838">
        <ele>181.83</ele>
        <time>2020-07-28T10:56:47Z</time>
      </trkpt>
      <trkpt lat="49.63503" lon="4.97824">
        <ele>181.35</ele>
        <time>2020-07-28T10:57:02Z</time>
      </trkpt>
      <trkpt lat="49.63511" lon="4.97812">
        <ele>183.75</ele>
        <time>2020-07-28T10:57:15Z</time>
      </trkpt>
      <trkpt lat="49.63519" lon="4.97802">
        <ele>187.59</ele>
        <time>2020-07-28T10:57:29Z</time>
      </trkpt>
      <trkpt lat="49.63529" lon="4.97791">
        <ele>189.52</ele>
        <time>2020-07-28T10:57:43Z</time>
      </trkpt>
      <trkpt lat="49.6353" lon="4.97787">
        <ele>190</ele>
        <time>2020-07-28T10:57:46Z</time>
      </trkpt>
      <trkpt lat="49.63538" lon="4.97779">
        <ele>189.04</ele>
        <time>2020-07-28T10:57:51Z</time>
      </trkpt>
      <trkpt lat="49.63543" lon="4.9777">
        <ele>188.56</ele>
        <time>2020-07-28T10:57:56Z</time>
      </trkpt>
      <trkpt lat="49.63547" lon="4.97764">
        <ele>187.11</ele>
        <time>2020-07-28T10:58:00Z</time>
      </trkpt>
      <trkpt lat="49.63549" lon="4.97741">
        <ele>185.19</ele>
        <time>2020-07-28T10:58:16Z</time>
      </trkpt>
      <trkpt lat="49.63554" lon="4.97717">
        <ele>183.75</ele>
        <time>2020-07-28T10:58:32Z</time>
      </trkpt>
      <trkpt lat="49.63555" lon="4.97714">
        <ele>183.27</ele>
        <time>2020-07-28T10:58:34Z</time>
      </trkpt>
      <trkpt lat="49.63566" lon="4.9769">
        <ele>189.04</ele>
        <time>2020-07-28T10:58:50Z</time>
      </trkpt>
      <trkpt lat="49.63577" lon="4.97678">
        <ele>198.17</ele>
        <time>2020-07-28T10:59:05Z</time>
      </trkpt>
      <trkpt lat="49.63585" lon="4.97674">
        <ele>196.25</ele>
        <time>2020-07-28T10:59:14Z</time>
      </trkpt>
      <trkpt lat="49.63601" lon="4.97667">
        <ele>194.32</ele>
        <time>2020-07-28T10:59:30Z</time>
      </trkpt>
      <trkpt lat="49.63623" lon="4.9766">
        <ele>182.79</ele>
        <time>2020-07-28T10:59:41Z</time>
      </trkpt>
      <trkpt lat="49.63628" lon="4.97655">
        <ele>182.79</ele>
        <time>2020-07-28T10:59:45Z</time>
      </trkpt>
      <trkpt lat="49.63637" lon="4.97642">
        <ele>178.46</ele>
        <time>2020-07-28T10:59:58Z</time>
      </trkpt>
      <trkpt lat="49.63642" lon="4.97625">
        <ele>174.14</ele>
        <time>2020-07-28T11:00:10Z</time>
      </trkpt>
      <trkpt lat="49.63647" lon="4.97607">
        <ele>175.58</ele>
        <time>2020-07-28T11:00:22Z</time>
      </trkpt>
      <trkpt lat="49.63647" lon="4.97585">
        <ele>174.62</ele>
        <time>2020-07-28T11:00:33Z</time>
      </trkpt>
      <trkpt lat="49.63646" lon="4.97566">
        <ele>174.14</ele>
        <time>2020-07-28T11:00:45Z</time>
      </trkpt>
      <trkpt lat="49.63647" lon="4.9755">
        <ele>175.58</ele>
        <time>2020-07-28T11:00:56Z</time>
      </trkpt>
      <trkpt lat="49.63647" lon="4.9753">
        <ele>178.46</ele>
        <time>2020-07-28T11:01:08Z</time>
      </trkpt>
      <trkpt lat="49.63646" lon="4.97519">
        <ele>179.9</ele>
        <time>2020-07-28T11:01:16Z</time>
      </trkpt>
      <trkpt lat="49.63645" lon="4.97498">
        <ele>182.31</ele>
        <time>2020-07-28T11:01:28Z</time>
      </trkpt>
      <trkpt lat="49.63646" lon="4.97478">
        <ele>183.75</ele>
        <time>2020-07-28T11:01:40Z</time>
      </trkpt>
      <trkpt lat="49.63646" lon="4.97463">
        <ele>184.71</ele>
        <time>2020-07-28T11:01:52Z</time>
      </trkpt>
      <trkpt lat="49.63647" lon="4.97462">
        <ele>184.23</ele>
        <time>2020-07-28T11:01:53Z</time>
      </trkpt>
      <trkpt lat="49.63648" lon="4.97443">
        <ele>183.27</ele>
        <time>2020-07-28T11:02:07Z</time>
      </trkpt>
      <trkpt lat="49.6365" lon="4.9743">
        <ele>182.79</ele>
        <time>2020-07-28T11:02:16Z</time>
      </trkpt>
      <trkpt lat="49.63657" lon="4.97413">
        <ele>184.23</ele>
        <time>2020-07-28T11:02:29Z</time>
      </trkpt>
      <trkpt lat="49.63664" lon="4.97398">
        <ele>184.71</ele>
        <time>2020-07-28T11:02:41Z</time>
      </trkpt>
      <trkpt lat="49.63675" lon="4.97385">
        <ele>184.71</ele>
        <time>2020-07-28T11:02:54Z</time>
      </trkpt>
      <trkpt lat="49.63677" lon="4.97382">
        <ele>184.71</ele>
        <time>2020-07-28T11:02:58Z</time>
      </trkpt>
      <trkpt lat="49.63688" lon="4.97374">
        <ele>186.15</ele>
        <time>2020-07-28T11:03:11Z</time>
      </trkpt>
      <trkpt lat="49.63699" lon="4.97367">
        <ele>185.19</ele>
        <time>2020-07-28T11:03:22Z</time>
      </trkpt>
      <trkpt lat="49.63707" lon="4.97358">
        <ele>185.19</ele>
        <time>2020-07-28T11:03:32Z</time>
      </trkpt>
      <trkpt lat="49.63712" lon="4.97349">
        <ele>186.15</ele>
        <time>2020-07-28T11:03:46Z</time>
      </trkpt>
      <trkpt lat="49.63719" lon="4.97343">
        <ele>188.56</ele>
        <time>2020-07-28T11:03:59Z</time>
      </trkpt>
      <trkpt lat="49.6373" lon="4.97331">
        <ele>190.96</ele>
        <time>2020-07-28T11:04:11Z</time>
      </trkpt>
      <trkpt lat="49.6374" lon="4.97318">
        <ele>193.36</ele>
        <time>2020-07-28T11:04:23Z</time>
      </trkpt>
      <trkpt lat="49.63745" lon="4.97309">
        <ele>194.8</ele>
        <time>2020-07-28T11:04:31Z</time>
      </trkpt>
      <trkpt lat="49.63754" lon="4.97294">
        <ele>196.25</ele>
        <time>2020-07-28T11:04:43Z</time>
      </trkpt>
      <trkpt lat="49.63762" lon="4.9728">
        <ele>199.13</ele>
        <time>2020-07-28T11:04:55Z</time>
      </trkpt>
      <trkpt lat="49.63769" lon="4.97262">
        <ele>199.13</ele>
        <time>2020-07-28T11:05:08Z</time>
      </trkpt>
      <trkpt lat="49.63776" lon="4.97247">
        <ele>200.09</ele>
        <time>2020-07-28T11:05:20Z</time>
      </trkpt>
      <trkpt lat="49.6378" lon="4.97238">
        <ele>201.05</ele>
        <time>2020-07-28T11:05:27Z</time>
      </trkpt>
      <trkpt lat="49.63787" lon="4.97233">
        <ele>202.01</ele>
        <time>2020-07-28T11:05:34Z</time>
      </trkpt>
      <trkpt lat="49.63798" lon="4.97215">
        <ele>203.46</ele>
        <time>2020-07-28T11:05:48Z</time>
      </trkpt>
      <trkpt lat="49.63809" lon="4.97198">
        <ele>205.38</ele>
        <time>2020-07-28T11:06:02Z</time>
      </trkpt>
      <trkpt lat="49.63818" lon="4.97184">
        <ele>207.3</ele>
        <time>2020-07-28T11:06:15Z</time>
      </trkpt>
      <trkpt lat="49.63826" lon="4.97163">
        <ele>208.74</ele>
        <time>2020-07-28T11:06:29Z</time>
      </trkpt>
      <trkpt lat="49.63831" lon="4.97149">
        <ele>208.74</ele>
        <time>2020-07-28T11:06:40Z</time>
      </trkpt>
      <trkpt lat="49.63838" lon="4.97131">
        <ele>207.78</ele>
        <time>2020-07-28T11:06:53Z</time>
      </trkpt>
      <trkpt lat="49.63845" lon="4.97112">
        <ele>207.78</ele>
        <time>2020-07-28T11:07:06Z</time>
      </trkpt>
      <trkpt lat="49.63847" lon="4.97108">
        <ele>207.3</ele>
        <time>2020-07-28T11:07:10Z</time>
      </trkpt>
      <trkpt lat="49.63856" lon="4.97095">
        <ele>206.34</ele>
        <time>2020-07-28T11:07:22Z</time>
      </trkpt>
      <trkpt lat="49.63862" lon="4.97086">
        <ele>206.34</ele>
        <time>2020-07-28T11:07:32Z</time>
      </trkpt>
      <trkpt lat="49.63873" lon="4.97072">
        <ele>208.26</ele>
        <time>2020-07-28T11:07:46Z</time>
      </trkpt>
      <trkpt lat="49.63883" lon="4.97056">
        <ele>210.19</ele>
        <time>2020-07-28T11:07:59Z</time>
      </trkpt>
      <trkpt lat="49.63887" lon="4.97051">
        <ele>210.19</ele>
        <time>2020-07-28T11:08:04Z</time>
      </trkpt>
      <trkpt lat="49.63896" lon="4.97037">
        <ele>210.19</ele>
        <time>2020-07-28T11:08:17Z</time>
      </trkpt>
      <trkpt lat="49.63902" lon="4.97026">
        <ele>212.11</ele>
        <time>2020-07-28T11:08:28Z</time>
      </trkpt>
      <trkpt lat="49.63911" lon="4.97003">
        <ele>213.07</ele>
        <time>2020-07-28T11:08:42Z</time>
      </trkpt>
      <trkpt lat="49.63917" lon="4.96986">
        <ele>214.03</ele>
        <time>2020-07-28T11:08:54Z</time>
      </trkpt>
      <trkpt lat="49.63924" lon="4.96968">
        <ele>216.43</ele>
        <time>2020-07-28T11:09:06Z</time>
      </trkpt>
      <trkpt lat="49.63928" lon="4.96955">
        <ele>217.4</ele>
        <time>2020-07-28T11:09:16Z</time>
      </trkpt>
      <trkpt lat="49.63933" lon="4.96936">
        <ele>218.36</ele>
        <time>2020-07-28T11:09:29Z</time>
      </trkpt>
      <trkpt lat="49.63941" lon="4.9692">
        <ele>220.28</ele>
        <time>2020-07-28T11:09:42Z</time>
      </trkpt>
      <trkpt lat="49.63944" lon="4.96914">
        <ele>220.76</ele>
        <time>2020-07-28T11:09:48Z</time>
      </trkpt>
      <trkpt lat="49.63955" lon="4.96902">
        <ele>222.68</ele>
        <time>2020-07-28T11:10:01Z</time>
      </trkpt>
      <trkpt lat="49.63964" lon="4.96891">
        <ele>224.12</ele>
        <time>2020-07-28T11:10:13Z</time>
      </trkpt>
      <trkpt lat="49.63967" lon="4.96885">
        <ele>225.09</ele>
        <time>2020-07-28T11:10:19Z</time>
      </trkpt>
      <trkpt lat="49.63976" lon="4.96872">
        <ele>227.01</ele>
        <time>2020-07-28T11:10:30Z</time>
      </trkpt>
      <trkpt lat="49.63985" lon="4.96855">
        <ele>227.49</ele>
        <time>2020-07-28T11:10:44Z</time>
      </trkpt>
      <trkpt lat="49.63995" lon="4.96846">
        <ele>228.45</ele>
        <time>2020-07-28T11:10:56Z</time>
      </trkpt>
      <trkpt lat="49.64004" lon="4.96833">
        <ele>228.93</ele>
        <time>2020-07-28T11:11:08Z</time>
      </trkpt>
      <trkpt lat="49.6401" lon="4.9682">
        <ele>228.93</ele>
        <time>2020-07-28T11:11:20Z</time>
      </trkpt>
      <trkpt lat="49.64018" lon="4.96802">
        <ele>230.85</ele>
        <time>2020-07-28T11:11:35Z</time>
      </trkpt>
      <trkpt lat="49.64025" lon="4.96784">
        <ele>231.81</ele>
        <time>2020-07-28T11:11:47Z</time>
      </trkpt>
      <trkpt lat="49.64031" lon="4.96765">
        <ele>233.74</ele>
        <time>2020-07-28T11:12:00Z</time>
      </trkpt>
      <trkpt lat="49.64038" lon="4.96746">
        <ele>234.22</ele>
        <time>2020-07-28T11:12:13Z</time>
      </trkpt>
      <trkpt lat="49.64043" lon="4.96732">
        <ele>235.18</ele>
        <time>2020-07-28T11:12:23Z</time>
      </trkpt>
      <trkpt lat="49.64049" lon="4.96711">
        <ele>234.7</ele>
        <time>2020-07-28T11:12:36Z</time>
      </trkpt>
      <trkpt lat="49.64053" lon="4.96691">
        <ele>234.7</ele>
        <time>2020-07-28T11:12:49Z</time>
      </trkpt>
      <trkpt lat="49.64058" lon="4.96675">
        <ele>237.1</ele>
        <time>2020-07-28T11:13:01Z</time>
      </trkpt>
      <trkpt lat="49.64058" lon="4.96673">
        <ele>237.1</ele>
        <time>2020-07-28T11:13:02Z</time>
      </trkpt>
      <trkpt lat="49.64064" lon="4.96649">
        <ele>238.54</ele>
        <time>2020-07-28T11:13:16Z</time>
      </trkpt>
      <trkpt lat="49.64071" lon="4.96631">
        <ele>239.51</ele>
        <time>2020-07-28T11:13:30Z</time>
      </trkpt>
      <trkpt lat="49.64078" lon="4.96618">
        <ele>240.47</ele>
        <time>2020-07-28T11:13:41Z</time>
      </trkpt>
      <trkpt lat="49.64089" lon="4.96606">
        <ele>242.39</ele>
        <time>2020-07-28T11:13:54Z</time>
      </trkpt>
      <trkpt lat="49.64092" lon="4.96603">
        <ele>242.39</ele>
        <time>2020-07-28T11:13:58Z</time>
      </trkpt>
      <trkpt lat="49.641" lon="4.96594">
        <ele>245.27</ele>
        <time>2020-07-28T11:14:08Z</time>
      </trkpt>
      <trkpt lat="49.64113" lon="4.96579">
        <ele>247.2</ele>
        <time>2020-07-28T11:14:23Z</time>
      </trkpt>
      <trkpt lat="49.64123" lon="4.96567">
        <ele>248.64</ele>
        <time>2020-07-28T11:14:36Z</time>
      </trkpt>
      <trkpt lat="49.64134" lon="4.96553">
        <ele>250.08</ele>
        <time>2020-07-28T11:14:50Z</time>
      </trkpt>
      <trkpt lat="49.64135" lon="4.96551">
        <ele>250.08</ele>
        <time>2020-07-28T11:14:52Z</time>
      </trkpt>
      <trkpt lat="49.64149" lon="4.96534">
        <ele>252.96</ele>
        <time>2020-07-28T11:15:09Z</time>
      </trkpt>
      <trkpt lat="49.6416" lon="4.96523">
        <ele>253.93</ele>
        <time>2020-07-28T11:15:22Z</time>
      </trkpt>
      <trkpt lat="49.64168" lon="4.96514">
        <ele>254.41</ele>
        <time>2020-07-28T11:15:32Z</time>
      </trkpt>
      <trkpt lat="49.64178" lon="4.965">
        <ele>255.85</ele>
        <time>2020-07-28T11:15:46Z</time>
      </trkpt>
      <trkpt lat="49.64188" lon="4.96488">
        <ele>257.77</ele>
        <time>2020-07-28T11:15:58Z</time>
      </trkpt>
      <trkpt lat="49.64192" lon="4.96485">
        <ele>258.73</ele>
        <time>2020-07-28T11:16:01Z</time>
      </trkpt>
      <trkpt lat="49.64204" lon="4.96467">
        <ele>261.14</ele>
        <time>2020-07-28T11:16:17Z</time>
      </trkpt>
      <trkpt lat="49.64215" lon="4.96447">
        <ele>261.14</ele>
        <time>2020-07-28T11:16:32Z</time>
      </trkpt>
      <trkpt lat="49.64224" lon="4.96433">
        <ele>261.14</ele>
        <time>2020-07-28T11:16:44Z</time>
      </trkpt>
      <trkpt lat="49.64234" lon="4.96415">
        <ele>262.58</ele>
        <time>2020-07-28T11:16:59Z</time>
      </trkpt>
      <trkpt lat="49.64243" lon="4.96398">
        <ele>264.02</ele>
        <time>2020-07-28T11:17:13Z</time>
      </trkpt>
      <trkpt lat="49.64251" lon="4.96385">
        <ele>264.5</ele>
        <time>2020-07-28T11:17:25Z</time>
      </trkpt>
      <trkpt lat="49.64251" lon="4.96386">
        <ele>263.54</ele>
        <time>2020-07-28T11:17:40Z</time>
      </trkpt>
      <trkpt lat="49.6426" lon="4.96369">
        <ele>265.46</ele>
        <time>2020-07-28T11:17:53Z</time>
      </trkpt>
      <trkpt lat="49.64271" lon="4.96355">
        <ele>266.42</ele>
        <time>2020-07-28T11:18:06Z</time>
      </trkpt>
      <trkpt lat="49.6428" lon="4.96341">
        <ele>267.38</ele>
        <time>2020-07-28T11:18:19Z</time>
      </trkpt>
      <trkpt lat="49.64289" lon="4.96329">
        <ele>269.31</ele>
        <time>2020-07-28T11:18:30Z</time>
      </trkpt>
      <trkpt lat="49.64298" lon="4.96318">
        <ele>272.19</ele>
        <time>2020-07-28T11:18:42Z</time>
      </trkpt>
      <trkpt lat="49.64308" lon="4.96304">
        <ele>274.11</ele>
        <time>2020-07-28T11:18:55Z</time>
      </trkpt>
      <trkpt lat="49.64316" lon="4.9629">
        <ele>277</ele>
        <time>2020-07-28T11:19:09Z</time>
      </trkpt>
      <trkpt lat="49.64324" lon="4.96276">
        <ele>279.4</ele>
        <time>2020-07-28T11:19:21Z</time>
      </trkpt>
      <trkpt lat="49.64326" lon="4.96273">
        <ele>279.88</ele>
        <time>2020-07-28T11:19:25Z</time>
      </trkpt>
      <trkpt lat="49.64334" lon="4.96254">
        <ele>282.28</ele>
        <time>2020-07-28T11:19:40Z</time>
      </trkpt>
      <trkpt lat="49.64337" lon="4.96237">
        <ele>283.25</ele>
        <time>2020-07-28T11:19:52Z</time>
      </trkpt>
      <trkpt lat="49.6434" lon="4.96222">
        <ele>284.21</ele>
        <time>2020-07-28T11:20:04Z</time>
      </trkpt>
      <trkpt lat="49.64345" lon="4.96206">
        <ele>286.61</ele>
        <time>2020-07-28T11:20:16Z</time>
      </trkpt>
      <trkpt lat="49.64352" lon="4.96186">
        <ele>290.46</ele>
        <time>2020-07-28T11:20:32Z</time>
      </trkpt>
      <trkpt lat="49.64354" lon="4.96181">
        <ele>290.94</ele>
        <time>2020-07-28T11:20:36Z</time>
      </trkpt>
      <trkpt lat="49.64363" lon="4.96159">
        <ele>291.9</ele>
        <time>2020-07-28T11:20:52Z</time>
      </trkpt>
      <trkpt lat="49.64372" lon="4.96147">
        <ele>291.42</ele>
        <time>2020-07-28T11:21:05Z</time>
      </trkpt>
      <trkpt lat="49.64383" lon="4.96134">
        <ele>292.38</ele>
        <time>2020-07-28T11:21:18Z</time>
      </trkpt>
      <trkpt lat="49.64391" lon="4.9612">
        <ele>292.38</ele>
        <time>2020-07-28T11:21:31Z</time>
      </trkpt>
      <trkpt lat="49.644" lon="4.96106">
        <ele>293.34</ele>
        <time>2020-07-28T11:21:46Z</time>
      </trkpt>
      <trkpt lat="49.64403" lon="4.96105">
        <ele>293.82</ele>
        <time>2020-07-28T11:21:51Z</time>
      </trkpt>
      <trkpt lat="49.64413" lon="4.96095">
        <ele>295.26</ele>
        <time>2020-07-28T11:22:04Z</time>
      </trkpt>
      <trkpt lat="49.64417" lon="4.9609">
        <ele>295.26</ele>
        <time>2020-07-28T11:22:09Z</time>
      </trkpt>
      <trkpt lat="49.64431" lon="4.96072">
        <ele>293.34</ele>
        <time>2020-07-28T11:22:24Z</time>
      </trkpt>
      <trkpt lat="49.64432" lon="4.9607">
        <ele>292.86</ele>
        <time>2020-07-28T11:22:26Z</time>
      </trkpt>
      <trkpt lat="49.64434" lon="4.96065">
        <ele>292.38</ele>
        <time>2020-07-28T11:22:29Z</time>
      </trkpt>
      <trkpt lat="49.64438" lon="4.96056">
        <ele>292.38</ele>
        <time>2020-07-28T11:22:37Z</time>
      </trkpt>
      <trkpt lat="49.64445" lon="4.96046">
        <ele>295.26</ele>
        <time>2020-07-28T11:22:49Z</time>
      </trkpt>
      <trkpt lat="49.64447" lon="4.96045">
        <ele>296.7</ele>
        <time>2020-07-28T11:22:54Z</time>
      </trkpt>
      <trkpt lat="49.64454" lon="4.96049">
        <ele>299.11</ele>
        <time>2020-07-28T11:23:03Z</time>
      </trkpt>
      <trkpt lat="49.64467" lon="4.96052">
        <ele>297.67</ele>
        <time>2020-07-28T11:23:19Z</time>
      </trkpt>
      <trkpt lat="49.64478" lon="4.96052">
        <ele>298.15</ele>
        <time>2020-07-28T11:23:31Z</time>
      </trkpt>
      <trkpt lat="49.64491" lon="4.96048">
        <ele>295.26</ele>
        <time>2020-07-28T11:23:43Z</time>
      </trkpt>
      <trkpt lat="49.64496" lon="4.96046">
        <ele>293.82</ele>
        <time>2020-07-28T11:23:52Z</time>
      </trkpt>
      <trkpt lat="49.64493" lon="4.96033">
        <ele>294.78</ele>
        <time>2020-07-28T11:24:00Z</time>
      </trkpt>
      <trkpt lat="49.64491" lon="4.96015">
        <ele>298.63</ele>
        <time>2020-07-28T11:24:13Z</time>
      </trkpt>
      <trkpt lat="49.64489" lon="4.95991">
        <ele>302.95</ele>
        <time>2020-07-28T11:24:27Z</time>
      </trkpt>
      <trkpt lat="49.6448" lon="4.95977">
        <ele>304.39</ele>
        <time>2020-07-28T11:24:41Z</time>
      </trkpt>
      <trkpt lat="49.64473" lon="4.95962">
        <ele>308.24</ele>
        <time>2020-07-28T11:24:55Z</time>
      </trkpt>
      <trkpt lat="49.64465" lon="4.95942">
        <ele>311.12</ele>
        <time>2020-07-28T11:25:08Z</time>
      </trkpt>
      <trkpt lat="49.64461" lon="4.95925">
        <ele>314.97</ele>
        <time>2020-07-28T11:25:20Z</time>
      </trkpt>
      <trkpt lat="49.64452" lon="4.95904">
        <ele>315.45</ele>
        <time>2020-07-28T11:25:35Z</time>
      </trkpt>
      <trkpt lat="49.64447" lon="4.95889">
        <ele>313.05</ele>
        <time>2020-07-28T11:25:44Z</time>
      </trkpt>
      <trkpt lat="49.64445" lon="4.95884">
        <ele>313.05</ele>
        <time>2020-07-28T11:25:47Z</time>
      </trkpt>
      <trkpt lat="49.64438" lon="4.95863">
        <ele>314.49</ele>
        <time>2020-07-28T11:26:02Z</time>
      </trkpt>
      <trkpt lat="49.64435" lon="4.9585">
        <ele>315.45</ele>
        <time>2020-07-28T11:26:17Z</time>
      </trkpt>
      <trkpt lat="49.64429" lon="4.95829">
        <ele>316.89</ele>
        <time>2020-07-28T11:26:30Z</time>
      </trkpt>
      <trkpt lat="49.64426" lon="4.95819">
        <ele>318.33</ele>
        <time>2020-07-28T11:26:42Z</time>
      </trkpt>
      <trkpt lat="49.64423" lon="4.95809">
        <ele>319.3</ele>
        <time>2020-07-28T11:26:50Z</time>
      </trkpt>
      <trkpt lat="49.64413" lon="4.95783">
        <ele>320.26</ele>
        <time>2020-07-28T11:27:05Z</time>
      </trkpt>
      <trkpt lat="49.644" lon="4.95759">
        <ele>319.3</ele>
        <time>2020-07-28T11:27:22Z</time>
      </trkpt>
      <trkpt lat="49.64391" lon="4.95742">
        <ele>320.74</ele>
        <time>2020-07-28T11:27:36Z</time>
      </trkpt>
      <trkpt lat="49.64382" lon="4.95721">
        <ele>319.3</ele>
        <time>2020-07-28T11:27:48Z</time>
      </trkpt>
      <trkpt lat="49.6438" lon="4.95717">
        <ele>319.3</ele>
        <time>2020-07-28T11:27:51Z</time>
      </trkpt>
      <trkpt lat="49.64373" lon="4.95699">
        <ele>320.26</ele>
        <time>2020-07-28T11:28:05Z</time>
      </trkpt>
      <trkpt lat="49.64369" lon="4.95683">
        <ele>322.18</ele>
        <time>2020-07-28T11:28:20Z</time>
      </trkpt>
      <trkpt lat="49.64363" lon="4.95669">
        <ele>324.1</ele>
        <time>2020-07-28T11:28:34Z</time>
      </trkpt>
      <trkpt lat="49.64357" lon="4.95662">
        <ele>324.58</ele>
        <time>2020-07-28T11:28:50Z</time>
      </trkpt>
      <trkpt lat="49.64352" lon="4.95644">
        <ele>326.99</ele>
        <time>2020-07-28T11:29:03Z</time>
      </trkpt>
      <trkpt lat="49.64345" lon="4.9563">
        <ele>328.91</ele>
        <time>2020-07-28T11:29:15Z</time>
      </trkpt>
      <trkpt lat="49.64334" lon="4.95609">
        <ele>331.79</ele>
        <time>2020-07-28T11:29:28Z</time>
      </trkpt>
      <trkpt lat="49.64332" lon="4.95605">
        <ele>331.31</ele>
        <time>2020-07-28T11:29:31Z</time>
      </trkpt>
      <trkpt lat="49.6433" lon="4.95597">
        <ele>331.79</ele>
        <time>2020-07-28T11:29:36Z</time>
      </trkpt>
      <trkpt lat="49.64325" lon="4.95587">
        <ele>330.35</ele>
        <time>2020-07-28T11:29:45Z</time>
      </trkpt>
      <trkpt lat="49.6432" lon="4.95578">
        <ele>330.35</ele>
        <time>2020-07-28T11:29:50Z</time>
      </trkpt>
      <trkpt lat="49.64315" lon="4.95567">
        <ele>328.43</ele>
        <time>2020-07-28T11:29:55Z</time>
      </trkpt>
      <trkpt lat="49.64307" lon="4.95553">
        <ele>326.02</ele>
        <time>2020-07-28T11:30:06Z</time>
      </trkpt>
      <trkpt lat="49.64302" lon="4.95535">
        <ele>323.62</ele>
        <time>2020-07-28T11:30:20Z</time>
      </trkpt>
      <trkpt lat="49.64297" lon="4.95516">
        <ele>324.1</ele>
        <time>2020-07-28T11:30:36Z</time>
      </trkpt>
      <trkpt lat="49.64291" lon="4.95498">
        <ele>324.58</ele>
        <time>2020-07-28T11:30:48Z</time>
      </trkpt>
      <trkpt lat="49.64287" lon="4.95482">
        <ele>325.54</ele>
        <time>2020-07-28T11:30:58Z</time>
      </trkpt>
      <trkpt lat="49.64282" lon="4.9547">
        <ele>326.02</ele>
        <time>2020-07-28T11:31:05Z</time>
      </trkpt>
      <trkpt lat="49.64283" lon="4.95455">
        <ele>324.58</ele>
        <time>2020-07-28T11:31:17Z</time>
      </trkpt>
      <trkpt lat="49.64281" lon="4.95447">
        <ele>323.62</ele>
        <time>2020-07-28T11:31:21Z</time>
      </trkpt>
      <trkpt lat="49.64278" lon="4.95425">
        <ele>322.66</ele>
        <time>2020-07-28T11:31:36Z</time>
      </trkpt>
      <trkpt lat="49.64276" lon="4.95405">
        <ele>323.14</ele>
        <time>2020-07-28T11:31:49Z</time>
      </trkpt>
      <trkpt lat="49.64275" lon="4.95402">
        <ele>323.62</ele>
        <time>2020-07-28T11:31:51Z</time>
      </trkpt>
      <trkpt lat="49.64272" lon="4.95382">
        <ele>325.06</ele>
        <time>2020-07-28T11:32:06Z</time>
      </trkpt>
      <trkpt lat="49.64272" lon="4.95381">
        <ele>325.54</ele>
        <time>2020-07-28T11:32:07Z</time>
      </trkpt>
      <trkpt lat="49.64263" lon="4.95356">
        <ele>320.74</ele>
        <time>2020-07-28T11:32:22Z</time>
      </trkpt>
      <trkpt lat="49.64263" lon="4.95354">
        <ele>320.26</ele>
        <time>2020-07-28T11:32:23Z</time>
      </trkpt>
      <trkpt lat="49.64256" lon="4.95334">
        <ele>316.41</ele>
        <time>2020-07-28T11:32:37Z</time>
      </trkpt>
      <trkpt lat="49.64249" lon="4.95308">
        <ele>315.45</ele>
        <time>2020-07-28T11:32:52Z</time>
      </trkpt>
      <trkpt lat="49.64248" lon="4.95302">
        <ele>315.45</ele>
        <time>2020-07-28T11:32:57Z</time>
      </trkpt>
      <trkpt lat="49.64235" lon="4.95276">
        <ele>310.64</ele>
        <time>2020-07-28T11:33:14Z</time>
      </trkpt>
      <trkpt lat="49.64227" lon="4.9525">
        <ele>303.43</ele>
        <time>2020-07-28T11:33:27Z</time>
      </trkpt>
      <trkpt lat="49.6422" lon="4.95232">
        <ele>298.15</ele>
        <time>2020-07-28T11:33:41Z</time>
      </trkpt>
      <trkpt lat="49.64219" lon="4.95229">
        <ele>297.67</ele>
        <time>2020-07-28T11:33:43Z</time>
      </trkpt>
      <trkpt lat="49.64213" lon="4.95218">
        <ele>297.18</ele>
        <time>2020-07-28T11:33:54Z</time>
      </trkpt>
      <trkpt lat="49.64209" lon="4.95208">
        <ele>297.18</ele>
        <time>2020-07-28T11:34:01Z</time>
      </trkpt>
      <trkpt lat="49.64203" lon="4.9519">
        <ele>297.18</ele>
        <time>2020-07-28T11:34:14Z</time>
      </trkpt>
      <trkpt lat="49.64196" lon="4.95173">
        <ele>294.78</ele>
        <time>2020-07-28T11:34:26Z</time>
      </trkpt>
      <trkpt lat="49.64189" lon="4.95158">
        <ele>294.3</ele>
        <time>2020-07-28T11:34:35Z</time>
      </trkpt>
      <trkpt lat="49.64183" lon="4.95137">
        <ele>294.78</ele>
        <time>2020-07-28T11:34:50Z</time>
      </trkpt>
      <trkpt lat="49.64182" lon="4.95132">
        <ele>294.78</ele>
        <time>2020-07-28T11:34:53Z</time>
      </trkpt>
      <trkpt lat="49.64179" lon="4.95115">
        <ele>294.3</ele>
        <time>2020-07-28T11:35:03Z</time>
      </trkpt>
      <trkpt lat="49.64177" lon="4.95109">
        <ele>294.78</ele>
        <time>2020-07-28T11:35:10Z</time>
      </trkpt>
      <trkpt lat="49.64176" lon="4.951">
        <ele>295.26</ele>
        <time>2020-07-28T11:35:15Z</time>
      </trkpt>
      <trkpt lat="49.64171" lon="4.95082">
        <ele>298.15</ele>
        <time>2020-07-28T11:35:27Z</time>
      </trkpt>
      <trkpt lat="49.64171" lon="4.95078">
        <ele>298.15</ele>
        <time>2020-07-28T11:35:29Z</time>
      </trkpt>
      <trkpt lat="49.64169" lon="4.95069">
        <ele>299.59</ele>
        <time>2020-07-28T11:35:34Z</time>
      </trkpt>
      <trkpt lat="49.64168" lon="4.95064">
        <ele>300.07</ele>
        <time>2020-07-28T11:35:37Z</time>
      </trkpt>
      <trkpt lat="49.64163" lon="4.95044">
        <ele>301.99</ele>
        <time>2020-07-28T11:35:50Z</time>
      </trkpt>
      <trkpt lat="49.64161" lon="4.95017">
        <ele>300.07</ele>
        <time>2020-07-28T11:36:03Z</time>
      </trkpt>
      <trkpt lat="49.64158" lon="4.95004">
        <ele>299.11</ele>
        <time>2020-07-28T11:36:13Z</time>
      </trkpt>
      <trkpt lat="49.64152" lon="4.94991">
        <ele>298.63</ele>
        <time>2020-07-28T11:36:21Z</time>
      </trkpt>
      <trkpt lat="49.64151" lon="4.94982">
        <ele>299.11</ele>
        <time>2020-07-28T11:36:26Z</time>
      </trkpt>
      <trkpt lat="49.64149" lon="4.94965">
        <ele>298.15</ele>
        <time>2020-07-28T11:36:38Z</time>
      </trkpt>
      <trkpt lat="49.64148" lon="4.94961">
        <ele>297.18</ele>
        <time>2020-07-28T11:36:41Z</time>
      </trkpt>
      <trkpt lat="49.64147" lon="4.9494">
        <ele>293.82</ele>
        <time>2020-07-28T11:36:51Z</time>
      </trkpt>
      <trkpt lat="49.64143" lon="4.94922">
        <ele>294.3</ele>
        <time>2020-07-28T11:37:03Z</time>
      </trkpt>
      <trkpt lat="49.6414" lon="4.94908">
        <ele>292.86</ele>
        <time>2020-07-28T11:37:10Z</time>
      </trkpt>
      <trkpt lat="49.64138" lon="4.949">
        <ele>292.86</ele>
        <time>2020-07-28T11:37:14Z</time>
      </trkpt>
      <trkpt lat="49.64133" lon="4.94879">
        <ele>291.9</ele>
        <time>2020-07-28T11:37:28Z</time>
      </trkpt>
      <trkpt lat="49.64128" lon="4.94858">
        <ele>292.38</ele>
        <time>2020-07-28T11:37:42Z</time>
      </trkpt>
      <trkpt lat="49.64123" lon="4.94846">
        <ele>290.46</ele>
        <time>2020-07-28T11:37:51Z</time>
      </trkpt>
      <trkpt lat="49.64121" lon="4.94839">
        <ele>290.46</ele>
        <time>2020-07-28T11:37:55Z</time>
      </trkpt>
      <trkpt lat="49.64115" lon="4.94819">
        <ele>289.49</ele>
        <time>2020-07-28T11:38:09Z</time>
      </trkpt>
      <trkpt lat="49.64109" lon="4.94798">
        <ele>291.9</ele>
        <time>2020-07-28T11:38:21Z</time>
      </trkpt>
      <trkpt lat="49.64106" lon="4.94777">
        <ele>292.86</ele>
        <time>2020-07-28T11:38:36Z</time>
      </trkpt>
      <trkpt lat="49.64105" lon="4.94769">
        <ele>292.38</ele>
        <time>2020-07-28T11:38:40Z</time>
      </trkpt>
      <trkpt lat="49.64104" lon="4.94745">
        <ele>292.38</ele>
        <time>2020-07-28T11:38:54Z</time>
      </trkpt>
      <trkpt lat="49.64099" lon="4.94726">
        <ele>292.38</ele>
        <time>2020-07-28T11:39:05Z</time>
      </trkpt>
      <trkpt lat="49.64098" lon="4.9471">
        <ele>291.9</ele>
        <time>2020-07-28T11:39:15Z</time>
      </trkpt>
      <trkpt lat="49.64095" lon="4.9469">
        <ele>291.42</ele>
        <time>2020-07-28T11:39:28Z</time>
      </trkpt>
      <trkpt lat="49.64094" lon="4.94663">
        <ele>290.94</ele>
        <time>2020-07-28T11:39:41Z</time>
      </trkpt>
      <trkpt lat="49.64092" lon="4.9465">
        <ele>291.9</ele>
        <time>2020-07-28T11:39:51Z</time>
      </trkpt>
      <trkpt lat="49.64092" lon="4.94645">
        <ele>291.9</ele>
        <time>2020-07-28T11:39:53Z</time>
      </trkpt>
      <trkpt lat="49.64088" lon="4.94625">
        <ele>293.82</ele>
        <time>2020-07-28T11:40:06Z</time>
      </trkpt>
      <trkpt lat="49.64084" lon="4.94603">
        <ele>295.74</ele>
        <time>2020-07-28T11:40:18Z</time>
      </trkpt>
      <trkpt lat="49.64084" lon="4.94598">
        <ele>296.22</ele>
        <time>2020-07-28T11:40:21Z</time>
      </trkpt>
      <trkpt lat="49.64084" lon="4.94579">
        <ele>298.63</ele>
        <time>2020-07-28T11:40:34Z</time>
      </trkpt>
      <trkpt lat="49.64084" lon="4.94577">
        <ele>298.63</ele>
        <time>2020-07-28T11:40:35Z</time>
      </trkpt>
      <trkpt lat="49.64081" lon="4.94547">
        <ele>298.15</ele>
        <time>2020-07-28T11:40:50Z</time>
      </trkpt>
      <trkpt lat="49.6408" lon="4.94536">
        <ele>298.63</ele>
        <time>2020-07-28T11:41:01Z</time>
      </trkpt>
      <trkpt lat="49.6408" lon="4.94514">
        <ele>300.07</ele>
        <time>2020-07-28T11:41:14Z</time>
      </trkpt>
      <trkpt lat="49.64076" lon="4.94491">
        <ele>299.59</ele>
        <time>2020-07-28T11:41:28Z</time>
      </trkpt>
      <trkpt lat="49.64074" lon="4.94467">
        <ele>300.07</ele>
        <time>2020-07-28T11:41:39Z</time>
      </trkpt>
      <trkpt lat="49.64073" lon="4.94448">
        <ele>302.47</ele>
        <time>2020-07-28T11:41:51Z</time>
      </trkpt>
      <trkpt lat="49.64074" lon="4.9443">
        <ele>304.88</ele>
        <time>2020-07-28T11:42:02Z</time>
      </trkpt>
      <trkpt lat="49.64072" lon="4.94419">
        <ele>306.8</ele>
        <time>2020-07-28T11:42:11Z</time>
      </trkpt>
      <trkpt lat="49.64069" lon="4.9441">
        <ele>307.76</ele>
        <time>2020-07-28T11:42:15Z</time>
      </trkpt>
      <trkpt lat="49.64068" lon="4.94398">
        <ele>309.68</ele>
        <time>2020-07-28T11:42:25Z</time>
      </trkpt>
      <trkpt lat="49.64065" lon="4.94384">
        <ele>309.68</ele>
        <time>2020-07-28T11:42:31Z</time>
      </trkpt>
      <trkpt lat="49.64071" lon="4.94367">
        <ele>309.2</ele>
        <time>2020-07-28T11:42:41Z</time>
      </trkpt>
      <trkpt lat="49.64069" lon="4.94345">
        <ele>308.72</ele>
        <time>2020-07-28T11:42:54Z</time>
      </trkpt>
      <trkpt lat="49.64067" lon="4.94339">
        <ele>309.2</ele>
        <time>2020-07-28T11:42:58Z</time>
      </trkpt>
      <trkpt lat="49.64066" lon="4.94331">
        <ele>309.2</ele>
        <time>2020-07-28T11:43:02Z</time>
      </trkpt>
      <trkpt lat="49.64062" lon="4.94308">
        <ele>307.28</ele>
        <time>2020-07-28T11:43:16Z</time>
      </trkpt>
      <trkpt lat="49.64058" lon="4.94296">
        <ele>305.36</ele>
        <time>2020-07-28T11:43:23Z</time>
      </trkpt>
      <trkpt lat="49.64057" lon="4.94292">
        <ele>304.88</ele>
        <time>2020-07-28T11:43:25Z</time>
      </trkpt>
      <trkpt lat="49.6405" lon="4.94273">
        <ele>302.95</ele>
        <time>2020-07-28T11:43:40Z</time>
      </trkpt>
      <trkpt lat="49.6405" lon="4.94271">
        <ele>302.95</ele>
        <time>2020-07-28T11:43:41Z</time>
      </trkpt>
      <trkpt lat="49.64045" lon="4.94264">
        <ele>301.99</ele>
        <time>2020-07-28T11:43:46Z</time>
      </trkpt>
      <trkpt lat="49.64042" lon="4.94259">
        <ele>300.07</ele>
        <time>2020-07-28T11:44:00Z</time>
      </trkpt>
      <trkpt lat="49.64042" lon="4.9426">
        <ele>300.07</ele>
        <time>2020-07-28T11:44:20Z</time>
      </trkpt>
      <trkpt lat="49.64043" lon="4.94262">
        <ele>299.11</ele>
        <time>2020-07-28T11:44:38Z</time>
      </trkpt>
      <trkpt lat="49.64042" lon="4.94262">
        <ele>299.11</ele>
        <time>2020-07-28T11:45:06Z</time>
      </trkpt>
      <trkpt lat="49.64042" lon="4.94262">
        <ele>298.63</ele>
        <time>2020-07-28T11:45:29Z</time>
      </trkpt>
      <trkpt lat="49.64041" lon="4.9426">
        <ele>298.63</ele>
        <time>2020-07-28T11:45:44Z</time>
      </trkpt>
      <trkpt lat="49.64042" lon="4.9426">
        <ele>298.15</ele>
        <time>2020-07-28T11:46:00Z</time>
      </trkpt>
      <trkpt lat="49.64044" lon="4.94262">
        <ele>298.15</ele>
        <time>2020-07-28T11:46:13Z</time>
      </trkpt>
      <trkpt lat="49.64044" lon="4.94262">
        <ele>298.15</ele>
        <time>2020-07-28T11:46:17Z</time>
      </trkpt>
      <trkpt lat="49.6405" lon="4.94258">
        <ele>297.18</ele>
        <time>2020-07-28T11:46:29Z</time>
      </trkpt>
      <trkpt lat="49.64052" lon="4.94258">
        <ele>297.18</ele>
        <time>2020-07-28T11:46:32Z</time>
      </trkpt>
      <trkpt lat="49.64064" lon="4.94248">
        <ele>296.7</ele>
        <time>2020-07-28T11:46:45Z</time>
      </trkpt>
      <trkpt lat="49.64076" lon="4.94236">
        <ele>297.18</ele>
        <time>2020-07-28T11:46:57Z</time>
      </trkpt>
      <trkpt lat="49.64093" lon="4.94223">
        <ele>297.67</ele>
        <time>2020-07-28T11:47:12Z</time>
      </trkpt>
      <trkpt lat="49.6411" lon="4.94212">
        <ele>299.11</ele>
        <time>2020-07-28T11:47:29Z</time>
      </trkpt>
      <trkpt lat="49.64121" lon="4.94204">
        <ele>298.15</ele>
        <time>2020-07-28T11:47:45Z</time>
      </trkpt>
      <trkpt lat="49.64126" lon="4.94199">
        <ele>298.15</ele>
        <time>2020-07-28T11:47:58Z</time>
      </trkpt>
      <trkpt lat="49.64129" lon="4.94197">
        <ele>297.67</ele>
        <time>2020-07-28T11:48:02Z</time>
      </trkpt>
      <trkpt lat="49.64132" lon="4.94195">
        <ele>297.18</ele>
        <time>2020-07-28T11:48:05Z</time>
      </trkpt>
      <trkpt lat="49.6415" lon="4.94186">
        <ele>294.78</ele>
        <time>2020-07-28T11:48:22Z</time>
      </trkpt>
      <trkpt lat="49.64166" lon="4.94177">
        <ele>294.3</ele>
        <time>2020-07-28T11:48:39Z</time>
      </trkpt>
      <trkpt lat="49.64179" lon="4.94174">
        <ele>293.34</ele>
        <time>2020-07-28T11:48:54Z</time>
      </trkpt>
      <trkpt lat="49.6418" lon="4.94173">
        <ele>293.34</ele>
        <time>2020-07-28T11:48:55Z</time>
      </trkpt>
      <trkpt lat="49.64184" lon="4.94171">
        <ele>293.34</ele>
        <time>2020-07-28T11:48:58Z</time>
      </trkpt>
      <trkpt lat="49.64201" lon="4.94165">
        <ele>290.94</ele>
        <time>2020-07-28T11:49:16Z</time>
      </trkpt>
      <trkpt lat="49.64202" lon="4.94165">
        <ele>290.94</ele>
        <time>2020-07-28T11:49:17Z</time>
      </trkpt>
      <trkpt lat="49.64217" lon="4.94159">
        <ele>288.05</ele>
        <time>2020-07-28T11:49:32Z</time>
      </trkpt>
      <trkpt lat="49.64229" lon="4.9415">
        <ele>285.17</ele>
        <time>2020-07-28T11:49:46Z</time>
      </trkpt>
      <trkpt lat="49.64244" lon="4.94141">
        <ele>280.36</ele>
        <time>2020-07-28T11:50:03Z</time>
      </trkpt>
      <trkpt lat="49.64257" lon="4.94127">
        <ele>279.4</ele>
        <time>2020-07-28T11:50:18Z</time>
      </trkpt>
      <trkpt lat="49.64259" lon="4.94126">
        <ele>279.4</ele>
        <time>2020-07-28T11:50:23Z</time>
      </trkpt>
      <trkpt lat="49.64268" lon="4.94125">
        <ele>279.88</ele>
        <time>2020-07-28T11:50:40Z</time>
      </trkpt>
      <trkpt lat="49.64282" lon="4.94109">
        <ele>278.92</ele>
        <time>2020-07-28T11:50:57Z</time>
      </trkpt>
      <trkpt lat="49.64292" lon="4.94089">
        <ele>274.11</ele>
        <time>2020-07-28T11:51:11Z</time>
      </trkpt>
      <trkpt lat="49.64296" lon="4.94078">
        <ele>273.63</ele>
        <time>2020-07-28T11:51:20Z</time>
      </trkpt>
      <trkpt lat="49.64304" lon="4.94057">
        <ele>270.27</ele>
        <time>2020-07-28T11:51:35Z</time>
      </trkpt>
      <trkpt lat="49.64307" lon="4.94043">
        <ele>268.83</ele>
        <time>2020-07-28T11:51:43Z</time>
      </trkpt>
      <trkpt lat="49.6431" lon="4.94024">
        <ele>270.27</ele>
        <time>2020-07-28T11:51:57Z</time>
      </trkpt>
      <trkpt lat="49.64313" lon="4.94012">
        <ele>269.79</ele>
        <time>2020-07-28T11:52:09Z</time>
      </trkpt>
      <trkpt lat="49.64319" lon="4.9401">
        <ele>267.86</ele>
        <time>2020-07-28T11:52:21Z</time>
      </trkpt>
      <trkpt lat="49.6433" lon="4.94013">
        <ele>266.42</ele>
        <time>2020-07-28T11:52:38Z</time>
      </trkpt>
      <trkpt lat="49.64344" lon="4.94033">
        <ele>264.02</ele>
        <time>2020-07-28T11:52:57Z</time>
      </trkpt>
      <trkpt lat="49.64358" lon="4.94046">
        <ele>263.54</ele>
        <time>2020-07-28T11:53:13Z</time>
      </trkpt>
      <trkpt lat="49.64373" lon="4.94061">
        <ele>263.06</ele>
        <time>2020-07-28T11:53:32Z</time>
      </trkpt>
      <trkpt lat="49.64383" lon="4.94078">
        <ele>263.54</ele>
        <time>2020-07-28T11:53:48Z</time>
      </trkpt>
      <trkpt lat="49.64395" lon="4.941">
        <ele>261.62</ele>
        <time>2020-07-28T11:54:04Z</time>
      </trkpt>
      <trkpt lat="49.64409" lon="4.94124">
        <ele>254.89</ele>
        <time>2020-07-28T11:54:21Z</time>
      </trkpt>
      <trkpt lat="49.64424" lon="4.94142">
        <ele>247.68</ele>
        <time>2020-07-28T11:54:38Z</time>
      </trkpt>
      <trkpt lat="49.64432" lon="4.94159">
        <ele>243.35</ele>
        <time>2020-07-28T11:54:52Z</time>
      </trkpt>
      <trkpt lat="49.64437" lon="4.94176">
        <ele>243.83</ele>
        <time>2020-07-28T11:55:09Z</time>
      </trkpt>
      <trkpt lat="49.64438" lon="4.94179">
        <ele>244.31</ele>
        <time>2020-07-28T11:55:27Z</time>
      </trkpt>
      <trkpt lat="49.64442" lon="4.94185">
        <ele>242.87</ele>
        <time>2020-07-28T11:55:44Z</time>
      </trkpt>
      <trkpt lat="49.6445" lon="4.94201">
        <ele>241.91</ele>
        <time>2020-07-28T11:56:03Z</time>
      </trkpt>
      <trkpt lat="49.64461" lon="4.94211">
        <ele>241.91</ele>
        <time>2020-07-28T11:56:22Z</time>
      </trkpt>
      <trkpt lat="49.64469" lon="4.94221">
        <ele>242.39</ele>
        <time>2020-07-28T11:56:29Z</time>
      </trkpt>
      <trkpt lat="49.64488" lon="4.94239">
        <ele>243.83</ele>
        <time>2020-07-28T11:56:48Z</time>
      </trkpt>
      <trkpt lat="49.64504" lon="4.94252">
        <ele>241.91</ele>
        <time>2020-07-28T11:57:05Z</time>
      </trkpt>
      <trkpt lat="49.64514" lon="4.94259">
        <ele>241.43</ele>
        <time>2020-07-28T11:57:13Z</time>
      </trkpt>
      <trkpt lat="49.6452" lon="4.94265">
        <ele>239.99</ele>
        <time>2020-07-28T11:57:18Z</time>
      </trkpt>
      <trkpt lat="49.64538" lon="4.94281">
        <ele>236.14</ele>
        <time>2020-07-28T11:57:34Z</time>
      </trkpt>
      <trkpt lat="49.64551" lon="4.94292">
        <ele>230.85</ele>
        <time>2020-07-28T11:57:49Z</time>
      </trkpt>
      <trkpt lat="49.64565" lon="4.94298">
        <ele>227.01</ele>
        <time>2020-07-28T11:58:05Z</time>
      </trkpt>
      <trkpt lat="49.6458" lon="4.94308">
        <ele>224.12</ele>
        <time>2020-07-28T11:58:20Z</time>
      </trkpt>
      <trkpt lat="49.64593" lon="4.94315">
        <ele>222.68</ele>
        <time>2020-07-28T11:58:33Z</time>
      </trkpt>
      <trkpt lat="49.64616" lon="4.9433">
        <ele>217.4</ele>
        <time>2020-07-28T11:58:50Z</time>
      </trkpt>
      <trkpt lat="49.64633" lon="4.94336">
        <ele>214.51</ele>
        <time>2020-07-28T11:59:01Z</time>
      </trkpt>
      <trkpt lat="49.64651" lon="4.94339">
        <ele>212.59</ele>
        <time>2020-07-28T11:59:19Z</time>
      </trkpt>
      <trkpt lat="49.64668" lon="4.94343">
        <ele>208.26</ele>
        <time>2020-07-28T11:59:35Z</time>
      </trkpt>
      <trkpt lat="49.64675" lon="4.94349">
        <ele>208.74</ele>
        <time>2020-07-28T11:59:41Z</time>
      </trkpt>
      <trkpt lat="49.64686" lon="4.94346">
        <ele>209.7</ele>
        <time>2020-07-28T11:59:49Z</time>
      </trkpt>
      <trkpt lat="49.647" lon="4.94341">
        <ele>203.46</ele>
        <time>2020-07-28T12:00:04Z</time>
      </trkpt>
      <trkpt lat="49.64712" lon="4.94341">
        <ele>199.13</ele>
        <time>2020-07-28T12:00:15Z</time>
      </trkpt>
      <trkpt lat="49.64729" lon="4.94342">
        <ele>195.28</ele>
        <time>2020-07-28T12:00:32Z</time>
      </trkpt>
      <trkpt lat="49.64747" lon="4.94342">
        <ele>191.92</ele>
        <time>2020-07-28T12:00:47Z</time>
      </trkpt>
      <trkpt lat="49.64762" lon="4.94334">
        <ele>189.52</ele>
        <time>2020-07-28T12:01:04Z</time>
      </trkpt>
      <trkpt lat="49.64763" lon="4.94334">
        <ele>189.04</ele>
        <time>2020-07-28T12:01:05Z</time>
      </trkpt>
      <trkpt lat="49.64765" lon="4.94321">
        <ele>189.04</ele>
        <time>2020-07-28T12:01:12Z</time>
      </trkpt>
      <trkpt lat="49.64765" lon="4.94302">
        <ele>189.04</ele>
        <time>2020-07-28T12:01:25Z</time>
      </trkpt>
      <trkpt lat="49.64764" lon="4.94301">
        <ele>189.52</ele>
        <time>2020-07-28T12:01:26Z</time>
      </trkpt>
      <trkpt lat="49.64744" lon="4.94293">
        <ele>190.96</ele>
        <time>2020-07-28T12:01:41Z</time>
      </trkpt>
      <trkpt lat="49.64731" lon="4.94287">
        <ele>192.88</ele>
        <time>2020-07-28T12:01:53Z</time>
      </trkpt>
      <trkpt lat="49.64727" lon="4.94286">
        <ele>193.36</ele>
        <time>2020-07-28T12:01:57Z</time>
      </trkpt>
      <trkpt lat="49.64713" lon="4.94282">
        <ele>196.25</ele>
        <time>2020-07-28T12:02:10Z</time>
      </trkpt>
      <trkpt lat="49.64704" lon="4.94274">
        <ele>198.17</ele>
        <time>2020-07-28T12:02:22Z</time>
      </trkpt>
      <trkpt lat="49.64701" lon="4.94268">
        <ele>198.17</ele>
        <time>2020-07-28T12:02:34Z</time>
      </trkpt>
      <trkpt lat="49.64704" lon="4.94259">
        <ele>198.65</ele>
        <time>2020-07-28T12:02:47Z</time>
      </trkpt>
      <trkpt lat="49.64705" lon="4.94254">
        <ele>197.69</ele>
        <time>2020-07-28T12:03:01Z</time>
      </trkpt>
      <trkpt lat="49.64705" lon="4.94254">
        <ele>197.21</ele>
        <time>2020-07-28T12:03:24Z</time>
      </trkpt>
      <trkpt lat="49.64706" lon="4.94253">
        <ele>197.21</ele>
        <time>2020-07-28T12:03:50Z</time>
      </trkpt>
      <trkpt lat="49.64704" lon="4.94255">
        <ele>197.21</ele>
        <time>2020-07-28T12:04:05Z</time>
      </trkpt>
      <trkpt lat="49.64702" lon="4.94252">
        <ele>197.69</ele>
        <time>2020-07-28T12:04:20Z</time>
      </trkpt>
      <trkpt lat="49.64701" lon="4.94252">
        <ele>198.17</ele>
        <time>2020-07-28T12:04:46Z</time>
      </trkpt>
      <trkpt lat="49.647" lon="4.94254">
        <ele>198.65</ele>
        <time>2020-07-28T12:05:05Z</time>
      </trkpt>
      <trkpt lat="49.64698" lon="4.94258">
        <ele>199.13</ele>
        <time>2020-07-28T12:05:22Z</time>
      </trkpt>
      <trkpt lat="49.64699" lon="4.94264">
        <ele>199.61</ele>
        <time>2020-07-28T12:05:39Z</time>
      </trkpt>
      <trkpt lat="49.64703" lon="4.9427">
        <ele>199.13</ele>
        <time>2020-07-28T12:05:53Z</time>
      </trkpt>
      <trkpt lat="49.64704" lon="4.94275">
        <ele>198.65</ele>
        <time>2020-07-28T12:06:02Z</time>
      </trkpt>
      <trkpt lat="49.64708" lon="4.94279">
        <ele>198.65</ele>
        <time>2020-07-28T12:06:06Z</time>
      </trkpt>
      <trkpt lat="49.64724" lon="4.94285">
        <ele>195.77</ele>
        <time>2020-07-28T12:06:25Z</time>
      </trkpt>
      <trkpt lat="49.64738" lon="4.94291">
        <ele>193.36</ele>
        <time>2020-07-28T12:06:39Z</time>
      </trkpt>
      <trkpt lat="49.64753" lon="4.94298">
        <ele>191.92</ele>
        <time>2020-07-28T12:06:55Z</time>
      </trkpt>
      <trkpt lat="49.6477" lon="4.94309">
        <ele>188.56</ele>
        <time>2020-07-28T12:07:16Z</time>
      </trkpt>
      <trkpt lat="49.64785" lon="4.94314">
        <ele>190.96</ele>
        <time>2020-07-28T12:07:34Z</time>
      </trkpt>
      <trkpt lat="49.648" lon="4.9431">
        <ele>190.48</ele>
        <time>2020-07-28T12:07:49Z</time>
      </trkpt>
      <trkpt lat="49.64815" lon="4.94304">
        <ele>187.11</ele>
        <time>2020-07-28T12:08:08Z</time>
      </trkpt>
      <trkpt lat="49.64834" lon="4.94295">
        <ele>186.15</ele>
        <time>2020-07-28T12:08:25Z</time>
      </trkpt>
      <trkpt lat="49.64853" lon="4.94283">
        <ele>187.59</ele>
        <time>2020-07-28T12:08:44Z</time>
      </trkpt>
      <trkpt lat="49.64871" lon="4.94279">
        <ele>182.79</ele>
        <time>2020-07-28T12:09:02Z</time>
      </trkpt>
      <trkpt lat="49.64885" lon="4.94283">
        <ele>180.38</ele>
        <time>2020-07-28T12:09:20Z</time>
      </trkpt>
      <trkpt lat="49.64905" lon="4.94295">
        <ele>179.9</ele>
        <time>2020-07-28T12:09:40Z</time>
      </trkpt>
      <trkpt lat="49.64926" lon="4.94308">
        <ele>177.5</ele>
        <time>2020-07-28T12:09:57Z</time>
      </trkpt>
      <trkpt lat="49.6493" lon="4.94313">
        <ele>177.02</ele>
        <time>2020-07-28T12:10:04Z</time>
      </trkpt>
      <trkpt lat="49.64946" lon="4.94323">
        <ele>177.5</ele>
        <time>2020-07-28T12:10:20Z</time>
      </trkpt>
      <trkpt lat="49.64951" lon="4.94327">
        <ele>176.54</ele>
        <time>2020-07-28T12:10:27Z</time>
      </trkpt>
      <trkpt lat="49.64971" lon="4.9434">
        <ele>175.58</ele>
        <time>2020-07-28T12:10:44Z</time>
      </trkpt>
      <trkpt lat="49.64978" lon="4.9434">
        <ele>175.1</ele>
        <time>2020-07-28T12:10:54Z</time>
      </trkpt>
      <trkpt lat="49.64983" lon="4.94331">
        <ele>175.1</ele>
        <time>2020-07-28T12:11:00Z</time>
      </trkpt>
      <trkpt lat="49.64996" lon="4.94314">
        <ele>176.06</ele>
        <time>2020-07-28T12:11:16Z</time>
      </trkpt>
      <trkpt lat="49.65005" lon="4.94301">
        <ele>176.06</ele>
        <time>2020-07-28T12:11:27Z</time>
      </trkpt>
      <trkpt lat="49.65007" lon="4.94295">
        <ele>176.06</ele>
        <time>2020-07-28T12:11:31Z</time>
      </trkpt>
      <trkpt lat="49.65009" lon="4.94293">
        <ele>176.54</ele>
        <time>2020-07-28T12:11:33Z</time>
      </trkpt>
      <trkpt lat="49.6501" lon="4.94292">
        <ele>177.02</ele>
        <time>2020-07-28T12:11:42Z</time>
      </trkpt>
      <trkpt lat="49.65015" lon="4.94286">
        <ele>176.54</ele>
        <time>2020-07-28T12:11:48Z</time>
      </trkpt>
      <trkpt lat="49.65016" lon="4.94282">
        <ele>176.06</ele>
        <time>2020-07-28T12:11:53Z</time>
      </trkpt>
      <trkpt lat="49.65029" lon="4.94262">
        <ele>176.06</ele>
        <time>2020-07-28T12:12:10Z</time>
      </trkpt>
      <trkpt lat="49.65034" lon="4.94258">
        <ele>177.02</ele>
        <time>2020-07-28T12:12:14Z</time>
      </trkpt>
      <trkpt lat="49.65045" lon="4.9424">
        <ele>179.9</ele>
        <time>2020-07-28T12:12:31Z</time>
      </trkpt>
      <trkpt lat="49.65056" lon="4.94223">
        <ele>182.31</ele>
        <time>2020-07-28T12:12:45Z</time>
      </trkpt>
      <trkpt lat="49.65067" lon="4.94205">
        <ele>181.35</ele>
        <time>2020-07-28T12:12:58Z</time>
      </trkpt>
      <trkpt lat="49.65068" lon="4.94201">
        <ele>181.35</ele>
        <time>2020-07-28T12:13:01Z</time>
      </trkpt>
      <trkpt lat="49.6508" lon="4.94201">
        <ele>178.94</ele>
        <time>2020-07-28T12:13:14Z</time>
      </trkpt>
      <trkpt lat="49.65081" lon="4.94202">
        <ele>178.94</ele>
        <time>2020-07-28T12:13:15Z</time>
      </trkpt>
      <trkpt lat="49.65097" lon="4.9422">
        <ele>178.94</ele>
        <time>2020-07-28T12:13:30Z</time>
      </trkpt>
      <trkpt lat="49.6511" lon="4.94241">
        <ele>175.1</ele>
        <time>2020-07-28T12:13:46Z</time>
      </trkpt>
      <trkpt lat="49.65117" lon="4.94253">
        <ele>173.66</ele>
        <time>2020-07-28T12:13:55Z</time>
      </trkpt>
      <trkpt lat="49.65124" lon="4.94267">
        <ele>173.66</ele>
        <time>2020-07-28T12:14:04Z</time>
      </trkpt>
      <trkpt lat="49.65138" lon="4.94286">
        <ele>171.73</ele>
        <time>2020-07-28T12:14:22Z</time>
      </trkpt>
      <trkpt lat="49.65142" lon="4.94296">
        <ele>171.73</ele>
        <time>2020-07-28T12:14:28Z</time>
      </trkpt>
      <trkpt lat="49.65154" lon="4.94319">
        <ele>169.81</ele>
        <time>2020-07-28T12:14:46Z</time>
      </trkpt>
      <trkpt lat="49.6517" lon="4.94341">
        <ele>170.29</ele>
        <time>2020-07-28T12:15:02Z</time>
      </trkpt>
      <trkpt lat="49.65177" lon="4.9436">
        <ele>167.89</ele>
        <time>2020-07-28T12:15:19Z</time>
      </trkpt>
      <trkpt lat="49.65191" lon="4.94387">
        <ele>167.89</ele>
        <time>2020-07-28T12:15:36Z</time>
      </trkpt>
      <trkpt lat="49.65204" lon="4.94407">
        <ele>166.93</ele>
        <time>2020-07-28T12:15:53Z</time>
      </trkpt>
      <trkpt lat="49.65215" lon="4.94429">
        <ele>166.93</ele>
        <time>2020-07-28T12:16:12Z</time>
      </trkpt>
      <trkpt lat="49.65234" lon="4.94459">
        <ele>167.41</ele>
        <time>2020-07-28T12:16:31Z</time>
      </trkpt>
      <trkpt lat="49.6525" lon="4.94478">
        <ele>169.81</ele>
        <time>2020-07-28T12:16:47Z</time>
      </trkpt>
      <trkpt lat="49.6526" lon="4.94492">
        <ele>168.85</ele>
        <time>2020-07-28T12:17:03Z</time>
      </trkpt>
      <trkpt lat="49.65279" lon="4.94516">
        <ele>169.33</ele>
        <time>2020-07-28T12:17:20Z</time>
      </trkpt>
      <trkpt lat="49.65295" lon="4.94536">
        <ele>171.25</ele>
        <time>2020-07-28T12:17:37Z</time>
      </trkpt>
      <trkpt lat="49.65305" lon="4.94547">
        <ele>171.73</ele>
        <time>2020-07-28T12:17:54Z</time>
      </trkpt>
      <trkpt lat="49.65326" lon="4.94565">
        <ele>170.29</ele>
        <time>2020-07-28T12:18:15Z</time>
      </trkpt>
      <trkpt lat="49.65342" lon="4.94578">
        <ele>172.21</ele>
        <time>2020-07-28T12:18:29Z</time>
      </trkpt>
      <trkpt lat="49.65355" lon="4.94589">
        <ele>172.21</ele>
        <time>2020-07-28T12:18:43Z</time>
      </trkpt>
      <trkpt lat="49.65367" lon="4.94598">
        <ele>172.69</ele>
        <time>2020-07-28T12:18:56Z</time>
      </trkpt>
      <trkpt lat="49.65381" lon="4.94612">
        <ele>174.62</ele>
        <time>2020-07-28T12:19:11Z</time>
      </trkpt>
      <trkpt lat="49.65396" lon="4.94623">
        <ele>175.1</ele>
        <time>2020-07-28T12:19:26Z</time>
      </trkpt>
      <trkpt lat="49.65402" lon="4.94626">
        <ele>175.1</ele>
        <time>2020-07-28T12:19:33Z</time>
      </trkpt>
      <trkpt lat="49.65417" lon="4.94621">
        <ele>176.54</ele>
        <time>2020-07-28T12:19:48Z</time>
      </trkpt>
      <trkpt lat="49.65426" lon="4.94605">
        <ele>177.5</ele>
        <time>2020-07-28T12:20:01Z</time>
      </trkpt>
      <trkpt lat="49.65427" lon="4.94582">
        <ele>178.46</ele>
        <time>2020-07-28T12:20:16Z</time>
      </trkpt>
      <trkpt lat="49.65429" lon="4.9456">
        <ele>179.42</ele>
        <time>2020-07-28T12:20:29Z</time>
      </trkpt>
      <trkpt lat="49.65428" lon="4.9454">
        <ele>179.42</ele>
        <time>2020-07-28T12:20:43Z</time>
      </trkpt>
      <trkpt lat="49.65429" lon="4.94525">
        <ele>180.38</ele>
        <time>2020-07-28T12:20:52Z</time>
      </trkpt>
      <trkpt lat="49.65428" lon="4.94504">
        <ele>181.35</ele>
        <time>2020-07-28T12:21:05Z</time>
      </trkpt>
      <trkpt lat="49.65428" lon="4.94485">
        <ele>183.27</ele>
        <time>2020-07-28T12:21:18Z</time>
      </trkpt>
      <trkpt lat="49.65429" lon="4.94462">
        <ele>187.11</ele>
        <time>2020-07-28T12:21:32Z</time>
      </trkpt>
      <trkpt lat="49.6543" lon="4.94441">
        <ele>190</ele>
        <time>2020-07-28T12:21:46Z</time>
      </trkpt>
      <trkpt lat="49.65433" lon="4.94411">
        <ele>191.44</ele>
        <time>2020-07-28T12:22:03Z</time>
      </trkpt>
      <trkpt lat="49.65437" lon="4.94392">
        <ele>190.96</ele>
        <time>2020-07-28T12:22:16Z</time>
      </trkpt>
      <trkpt lat="49.65445" lon="4.9437">
        <ele>191.92</ele>
        <time>2020-07-28T12:22:31Z</time>
      </trkpt>
      <trkpt lat="49.65455" lon="4.94352">
        <ele>193.84</ele>
        <time>2020-07-28T12:22:45Z</time>
      </trkpt>
      <trkpt lat="49.65467" lon="4.94337">
        <ele>195.77</ele>
        <time>2020-07-28T12:22:59Z</time>
      </trkpt>
      <trkpt lat="49.6548" lon="4.94324">
        <ele>197.69</ele>
        <time>2020-07-28T12:23:14Z</time>
      </trkpt>
      <trkpt lat="49.65493" lon="4.94313">
        <ele>200.09</ele>
        <time>2020-07-28T12:23:28Z</time>
      </trkpt>
      <trkpt lat="49.65505" lon="4.94302">
        <ele>201.53</ele>
        <time>2020-07-28T12:23:41Z</time>
      </trkpt>
      <trkpt lat="49.65519" lon="4.9429">
        <ele>202.98</ele>
        <time>2020-07-28T12:23:56Z</time>
      </trkpt>
      <trkpt lat="49.65533" lon="4.94279">
        <ele>205.38</ele>
        <time>2020-07-28T12:24:10Z</time>
      </trkpt>
      <trkpt lat="49.65547" lon="4.94266">
        <ele>208.26</ele>
        <time>2020-07-28T12:24:25Z</time>
      </trkpt>
      <trkpt lat="49.6556" lon="4.94252">
        <ele>209.22</ele>
        <time>2020-07-28T12:24:40Z</time>
      </trkpt>
      <trkpt lat="49.65571" lon="4.94239">
        <ele>211.15</ele>
        <time>2020-07-28T12:24:53Z</time>
      </trkpt>
      <trkpt lat="49.65583" lon="4.94221">
        <ele>212.11</ele>
        <time>2020-07-28T12:25:08Z</time>
      </trkpt>
      <trkpt lat="49.65592" lon="4.94205">
        <ele>212.59</ele>
        <time>2020-07-28T12:25:21Z</time>
      </trkpt>
      <trkpt lat="49.656" lon="4.94186">
        <ele>214.51</ele>
        <time>2020-07-28T12:25:35Z</time>
      </trkpt>
      <trkpt lat="49.65608" lon="4.94166">
        <ele>215.47</ele>
        <time>2020-07-28T12:25:49Z</time>
      </trkpt>
      <trkpt lat="49.65616" lon="4.94146">
        <ele>216.43</ele>
        <time>2020-07-28T12:26:04Z</time>
      </trkpt>
      <trkpt lat="49.65625" lon="4.94125">
        <ele>217.88</ele>
        <time>2020-07-28T12:26:19Z</time>
      </trkpt>
      <trkpt lat="49.65636" lon="4.94104">
        <ele>220.28</ele>
        <time>2020-07-28T12:26:35Z</time>
      </trkpt>
      <trkpt lat="49.65647" lon="4.9409">
        <ele>222.2</ele>
        <time>2020-07-28T12:26:49Z</time>
      </trkpt>
      <trkpt lat="49.65659" lon="4.94075">
        <ele>222.68</ele>
        <time>2020-07-28T12:27:04Z</time>
      </trkpt>
      <trkpt lat="49.65672" lon="4.94061">
        <ele>224.61</ele>
        <time>2020-07-28T12:27:19Z</time>
      </trkpt>
      <trkpt lat="49.65684" lon="4.94049">
        <ele>226.53</ele>
        <time>2020-07-28T12:27:33Z</time>
      </trkpt>
      <trkpt lat="49.65698" lon="4.94038">
        <ele>229.41</ele>
        <time>2020-07-28T12:27:47Z</time>
      </trkpt>
      <trkpt lat="49.65712" lon="4.94027">
        <ele>231.81</ele>
        <time>2020-07-28T12:28:01Z</time>
      </trkpt>
      <trkpt lat="49.65727" lon="4.94016">
        <ele>233.26</ele>
        <time>2020-07-28T12:28:15Z</time>
      </trkpt>
      <trkpt lat="49.65731" lon="4.94012">
        <ele>233.74</ele>
        <time>2020-07-28T12:28:22Z</time>
      </trkpt>
      <trkpt lat="49.65744" lon="4.94004">
        <ele>235.18</ele>
        <time>2020-07-28T12:28:35Z</time>
      </trkpt>
      <trkpt lat="49.6576" lon="4.93994">
        <ele>235.66</ele>
        <time>2020-07-28T12:28:51Z</time>
      </trkpt>
      <trkpt lat="49.65768" lon="4.93987">
        <ele>236.62</ele>
        <time>2020-07-28T12:29:00Z</time>
      </trkpt>
      <trkpt lat="49.65783" lon="4.9398">
        <ele>239.99</ele>
        <time>2020-07-28T12:29:15Z</time>
      </trkpt>
      <trkpt lat="49.65797" lon="4.93972">
        <ele>240.95</ele>
        <time>2020-07-28T12:29:28Z</time>
      </trkpt>
      <trkpt lat="49.65812" lon="4.93966">
        <ele>242.87</ele>
        <time>2020-07-28T12:29:42Z</time>
      </trkpt>
      <trkpt lat="49.65816" lon="4.93964">
        <ele>242.39</ele>
        <time>2020-07-28T12:29:56Z</time>
      </trkpt>
      <trkpt lat="49.65825" lon="4.93961">
        <ele>242.87</ele>
        <time>2020-07-28T12:30:14Z</time>
      </trkpt>
      <trkpt lat="49.65838" lon="4.93957">
        <ele>244.31</ele>
        <time>2020-07-28T12:30:28Z</time>
      </trkpt>
      <trkpt lat="49.65851" lon="4.93953">
        <ele>245.75</ele>
        <time>2020-07-28T12:30:40Z</time>
      </trkpt>
      <trkpt lat="49.65865" lon="4.93949">
        <ele>246.23</ele>
        <time>2020-07-28T12:30:53Z</time>
      </trkpt>
      <trkpt lat="49.6588" lon="4.93944">
        <ele>245.75</ele>
        <time>2020-07-28T12:31:07Z</time>
      </trkpt>
      <trkpt lat="49.65896" lon="4.93936">
        <ele>245.27</ele>
        <time>2020-07-28T12:31:23Z</time>
      </trkpt>
      <trkpt lat="49.65911" lon="4.93925">
        <ele>244.79</ele>
        <time>2020-07-28T12:31:38Z</time>
      </trkpt>
      <trkpt lat="49.65924" lon="4.93914">
        <ele>246.72</ele>
        <time>2020-07-28T12:31:52Z</time>
      </trkpt>
      <trkpt lat="49.65937" lon="4.93903">
        <ele>248.16</ele>
        <time>2020-07-28T12:32:06Z</time>
      </trkpt>
      <trkpt lat="49.65951" lon="4.93892">
        <ele>249.12</ele>
        <time>2020-07-28T12:32:21Z</time>
      </trkpt>
      <trkpt lat="49.65964" lon="4.93881">
        <ele>250.08</ele>
        <time>2020-07-28T12:32:36Z</time>
      </trkpt>
      <trkpt lat="49.65977" lon="4.93871">
        <ele>252.48</ele>
        <time>2020-07-28T12:32:50Z</time>
      </trkpt>
      <trkpt lat="49.65991" lon="4.93861">
        <ele>252.96</ele>
        <time>2020-07-28T12:33:04Z</time>
      </trkpt>
      <trkpt lat="49.66004" lon="4.93851">
        <ele>254.41</ele>
        <time>2020-07-28T12:33:17Z</time>
      </trkpt>
      <trkpt lat="49.66019" lon="4.93841">
        <ele>256.33</ele>
        <time>2020-07-28T12:33:31Z</time>
      </trkpt>
      <trkpt lat="49.66022" lon="4.93838">
        <ele>256.81</ele>
        <time>2020-07-28T12:33:36Z</time>
      </trkpt>
      <trkpt lat="49.66036" lon="4.93834">
        <ele>259.69</ele>
        <time>2020-07-28T12:33:50Z</time>
      </trkpt>
      <trkpt lat="49.66047" lon="4.93826">
        <ele>258.73</ele>
        <time>2020-07-28T12:34:03Z</time>
      </trkpt>
      <trkpt lat="49.66048" lon="4.93825">
        <ele>258.73</ele>
        <time>2020-07-28T12:34:04Z</time>
      </trkpt>
      <trkpt lat="49.66062" lon="4.93817">
        <ele>260.17</ele>
        <time>2020-07-28T12:34:18Z</time>
      </trkpt>
      <trkpt lat="49.66075" lon="4.93807">
        <ele>261.62</ele>
        <time>2020-07-28T12:34:31Z</time>
      </trkpt>
      <trkpt lat="49.66085" lon="4.93793">
        <ele>262.58</ele>
        <time>2020-07-28T12:34:44Z</time>
      </trkpt>
      <trkpt lat="49.66088" lon="4.93787">
        <ele>263.06</ele>
        <time>2020-07-28T12:34:50Z</time>
      </trkpt>
      <trkpt lat="49.66087" lon="4.93779">
        <ele>264.5</ele>
        <time>2020-07-28T12:35:02Z</time>
      </trkpt>
      <trkpt lat="49.66087" lon="4.93779">
        <ele>264.5</ele>
        <time>2020-07-28T12:35:21Z</time>
      </trkpt>
      <trkpt lat="49.66087" lon="4.93779">
        <ele>264.02</ele>
        <time>2020-07-28T12:35:35Z</time>
      </trkpt>
      <trkpt lat="49.66087" lon="4.93779">
        <ele>264.5</ele>
        <time>2020-07-28T12:35:55Z</time>
      </trkpt>
      <trkpt lat="49.66087" lon="4.9378">
        <ele>265.46</ele>
        <time>2020-07-28T12:36:24Z</time>
      </trkpt>
      <trkpt lat="49.66086" lon="4.9378">
        <ele>265.94</ele>
        <time>2020-07-28T12:36:59Z</time>
      </trkpt>
      <trkpt lat="49.66086" lon="4.93779">
        <ele>265.94</ele>
        <time>2020-07-28T12:37:26Z</time>
      </trkpt>
      <trkpt lat="49.66086" lon="4.93779">
        <ele>265.46</ele>
        <time>2020-07-28T12:37:45Z</time>
      </trkpt>
      <trkpt lat="49.66086" lon="4.93779">
        <ele>264.98</ele>
        <time>2020-07-28T12:38:10Z</time>
      </trkpt>
      <trkpt lat="49.66086" lon="4.93778">
        <ele>264.98</ele>
        <time>2020-07-28T12:38:39Z</time>
      </trkpt>
      <trkpt lat="49.66086" lon="4.93778">
        <ele>264.98</ele>
        <time>2020-07-28T12:39:04Z</time>
      </trkpt>
      <trkpt lat="49.66086" lon="4.93778">
        <ele>264.98</ele>
        <time>2020-07-28T12:39:33Z</time>
      </trkpt>
      <trkpt lat="49.66086" lon="4.93778">
        <ele>264.98</ele>
        <time>2020-07-28T12:40:00Z</time>
      </trkpt>
      <trkpt lat="49.66086" lon="4.93778">
        <ele>264.5</ele>
        <time>2020-07-28T12:40:26Z</time>
      </trkpt>
      <trkpt lat="49.66086" lon="4.93778">
        <ele>264.5</ele>
        <time>2020-07-28T12:40:54Z</time>
      </trkpt>
      <trkpt lat="49.66086" lon="4.93778">
        <ele>264.5</ele>
        <time>2020-07-28T12:41:18Z</time>
      </trkpt>
      <trkpt lat="49.66086" lon="4.93778">
        <ele>264.5</ele>
        <time>2020-07-28T12:41:49Z</time>
      </trkpt>
      <trkpt lat="49.66086" lon="4.93779">
        <ele>264.5</ele>
        <time>2020-07-28T12:42:15Z</time>
      </trkpt>
      <trkpt lat="49.66087" lon="4.93779">
        <ele>264.5</ele>
        <time>2020-07-28T12:42:41Z</time>
      </trkpt>
      <trkpt lat="49.66087" lon="4.93779">
        <ele>264.5</ele>
        <time>2020-07-28T12:42:57Z</time>
      </trkpt>
      <trkpt lat="49.66087" lon="4.93779">
        <ele>264.98</ele>
        <time>2020-07-28T12:43:26Z</time>
      </trkpt>
      <trkpt lat="49.66087" lon="4.93779">
        <ele>265.46</ele>
        <time>2020-07-28T12:43:53Z</time>
      </trkpt>
      <trkpt lat="49.66087" lon="4.93779">
        <ele>265.46</ele>
        <time>2020-07-28T12:44:30Z</time>
      </trkpt>
      <trkpt lat="49.66087" lon="4.9378">
        <ele>265.46</ele>
        <time>2020-07-28T12:44:49Z</time>
      </trkpt>
      <trkpt lat="49.66089" lon="4.9378">
        <ele>265.46</ele>
        <time>2020-07-28T12:45:03Z</time>
      </trkpt>
      <trkpt lat="49.6609" lon="4.9378">
        <ele>264.5</ele>
        <time>2020-07-28T12:45:18Z</time>
      </trkpt>
      <trkpt lat="49.66105" lon="4.93778">
        <ele>265.46</ele>
        <time>2020-07-28T12:45:31Z</time>
      </trkpt>
      <trkpt lat="49.66114" lon="4.93769">
        <ele>264.98</ele>
        <time>2020-07-28T12:45:44Z</time>
      </trkpt>
      <trkpt lat="49.66125" lon="4.93748">
        <ele>266.42</ele>
        <time>2020-07-28T12:46:01Z</time>
      </trkpt>
      <trkpt lat="49.66129" lon="4.93739">
        <ele>267.86</ele>
        <time>2020-07-28T12:46:08Z</time>
      </trkpt>
      <trkpt lat="49.66139" lon="4.93717">
        <ele>268.83</ele>
        <time>2020-07-28T12:46:23Z</time>
      </trkpt>
      <trkpt lat="49.66148" lon="4.93698">
        <ele>268.35</ele>
        <time>2020-07-28T12:46:38Z</time>
      </trkpt>
      <trkpt lat="49.66158" lon="4.93677">
        <ele>267.86</ele>
        <time>2020-07-28T12:46:53Z</time>
      </trkpt>
      <trkpt lat="49.66173" lon="4.93657">
        <ele>267.86</ele>
        <time>2020-07-28T12:47:10Z</time>
      </trkpt>
      <trkpt lat="49.66186" lon="4.93639">
        <ele>265.94</ele>
        <time>2020-07-28T12:47:26Z</time>
      </trkpt>
      <trkpt lat="49.66197" lon="4.9362">
        <ele>264.98</ele>
        <time>2020-07-28T12:47:41Z</time>
      </trkpt>
      <trkpt lat="49.66205" lon="4.93594">
        <ele>264.5</ele>
        <time>2020-07-28T12:47:58Z</time>
      </trkpt>
      <trkpt lat="49.66212" lon="4.93581">
        <ele>264.5</ele>
        <time>2020-07-28T12:48:11Z</time>
      </trkpt>
      <trkpt lat="49.66225" lon="4.93571">
        <ele>264.02</ele>
        <time>2020-07-28T12:48:25Z</time>
      </trkpt>
      <trkpt lat="49.66239" lon="4.93562">
        <ele>264.98</ele>
        <time>2020-07-28T12:48:39Z</time>
      </trkpt>
      <trkpt lat="49.66242" lon="4.9356">
        <ele>264.98</ele>
        <time>2020-07-28T12:48:42Z</time>
      </trkpt>
      <trkpt lat="49.66252" lon="4.93552">
        <ele>262.58</ele>
        <time>2020-07-28T12:48:54Z</time>
      </trkpt>
      <trkpt lat="49.6627" lon="4.93541">
        <ele>264.98</ele>
        <time>2020-07-28T12:49:11Z</time>
      </trkpt>
      <trkpt lat="49.66282" lon="4.93529">
        <ele>265.94</ele>
        <time>2020-07-28T12:49:24Z</time>
      </trkpt>
      <trkpt lat="49.66292" lon="4.93527">
        <ele>268.35</ele>
        <time>2020-07-28T12:49:35Z</time>
      </trkpt>
      <trkpt lat="49.66309" lon="4.93526">
        <ele>269.31</ele>
        <time>2020-07-28T12:49:48Z</time>
      </trkpt>
      <trkpt lat="49.66316" lon="4.93525">
        <ele>266.42</ele>
        <time>2020-07-28T12:49:58Z</time>
      </trkpt>
      <trkpt lat="49.66319" lon="4.93526">
        <ele>266.42</ele>
        <time>2020-07-28T12:50:01Z</time>
      </trkpt>
      <trkpt lat="49.66336" lon="4.93539">
        <ele>264.5</ele>
        <time>2020-07-28T12:50:18Z</time>
      </trkpt>
      <trkpt lat="49.66349" lon="4.93551">
        <ele>264.02</ele>
        <time>2020-07-28T12:50:32Z</time>
      </trkpt>
      <trkpt lat="49.66362" lon="4.93557">
        <ele>260.65</ele>
        <time>2020-07-28T12:50:45Z</time>
      </trkpt>
      <trkpt lat="49.66377" lon="4.93561">
        <ele>256.81</ele>
        <time>2020-07-28T12:51:00Z</time>
      </trkpt>
      <trkpt lat="49.66395" lon="4.9356">
        <ele>253.44</ele>
        <time>2020-07-28T12:51:16Z</time>
      </trkpt>
      <trkpt lat="49.66409" lon="4.93571">
        <ele>251.04</ele>
        <time>2020-07-28T12:51:33Z</time>
      </trkpt>
      <trkpt lat="49.66427" lon="4.9359">
        <ele>248.16</ele>
        <time>2020-07-28T12:51:51Z</time>
      </trkpt>
      <trkpt lat="49.66429" lon="4.93592">
        <ele>247.68</ele>
        <time>2020-07-28T12:51:54Z</time>
      </trkpt>
      <trkpt lat="49.66442" lon="4.93604">
        <ele>249.12</ele>
        <time>2020-07-28T12:52:08Z</time>
      </trkpt>
      <trkpt lat="49.6645" lon="4.93617">
        <ele>248.64</ele>
        <time>2020-07-28T12:52:23Z</time>
      </trkpt>
      <trkpt lat="49.66466" lon="4.93639">
        <ele>247.2</ele>
        <time>2020-07-28T12:52:39Z</time>
      </trkpt>
      <trkpt lat="49.6648" lon="4.93658">
        <ele>245.75</ele>
        <time>2020-07-28T12:52:57Z</time>
      </trkpt>
      <trkpt lat="49.66486" lon="4.93671">
        <ele>246.72</ele>
        <time>2020-07-28T12:53:07Z</time>
      </trkpt>
      <trkpt lat="49.66503" lon="4.93698">
        <ele>245.27</ele>
        <time>2020-07-28T12:53:27Z</time>
      </trkpt>
      <trkpt lat="49.66514" lon="4.93727">
        <ele>242.87</ele>
        <time>2020-07-28T12:53:48Z</time>
      </trkpt>
      <trkpt lat="49.66526" lon="4.93747">
        <ele>242.39</ele>
        <time>2020-07-28T12:54:04Z</time>
      </trkpt>
      <trkpt lat="49.66534" lon="4.93768">
        <ele>240.95</ele>
        <time>2020-07-28T12:54:21Z</time>
      </trkpt>
      <trkpt lat="49.66546" lon="4.93794">
        <ele>238.54</ele>
        <time>2020-07-28T12:54:39Z</time>
      </trkpt>
      <trkpt lat="49.66556" lon="4.93817">
        <ele>236.14</ele>
        <time>2020-07-28T12:54:56Z</time>
      </trkpt>
      <trkpt lat="49.66567" lon="4.93843">
        <ele>233.74</ele>
        <time>2020-07-28T12:55:17Z</time>
      </trkpt>
      <trkpt lat="49.66577" lon="4.9387">
        <ele>230.85</ele>
        <time>2020-07-28T12:55:35Z</time>
      </trkpt>
      <trkpt lat="49.66585" lon="4.93894">
        <ele>228.93</ele>
        <time>2020-07-28T12:55:53Z</time>
      </trkpt>
      <trkpt lat="49.66594" lon="4.9392">
        <ele>228.45</ele>
        <time>2020-07-28T12:56:11Z</time>
      </trkpt>
      <trkpt lat="49.66606" lon="4.93945">
        <ele>223.64</ele>
        <time>2020-07-28T12:56:29Z</time>
      </trkpt>
      <trkpt lat="49.66607" lon="4.93949">
        <ele>222.68</ele>
        <time>2020-07-28T12:56:32Z</time>
      </trkpt>
      <trkpt lat="49.66608" lon="4.93951">
        <ele>222.2</ele>
        <time>2020-07-28T12:56:34Z</time>
      </trkpt>
      <trkpt lat="49.66616" lon="4.93975">
        <ele>223.64</ele>
        <time>2020-07-28T12:56:52Z</time>
      </trkpt>
      <trkpt lat="49.66627" lon="4.94004">
        <ele>223.64</ele>
        <time>2020-07-28T12:57:09Z</time>
      </trkpt>
      <trkpt lat="49.66635" lon="4.94027">
        <ele>221.72</ele>
        <time>2020-07-28T12:57:26Z</time>
      </trkpt>
      <trkpt lat="49.66644" lon="4.94057">
        <ele>221.72</ele>
        <time>2020-07-28T12:57:45Z</time>
      </trkpt>
      <trkpt lat="49.66652" lon="4.94078">
        <ele>221.24</ele>
        <time>2020-07-28T12:57:59Z</time>
      </trkpt>
      <trkpt lat="49.6666" lon="4.94105">
        <ele>220.28</ele>
        <time>2020-07-28T12:58:16Z</time>
      </trkpt>
      <trkpt lat="49.66668" lon="4.94129">
        <ele>219.8</ele>
        <time>2020-07-28T12:58:33Z</time>
      </trkpt>
      <trkpt lat="49.66678" lon="4.9416">
        <ele>218.84</ele>
        <time>2020-07-28T12:58:51Z</time>
      </trkpt>
      <trkpt lat="49.66686" lon="4.94182">
        <ele>216.91</ele>
        <time>2020-07-28T12:59:07Z</time>
      </trkpt>
      <trkpt lat="49.66695" lon="4.9421">
        <ele>218.36</ele>
        <time>2020-07-28T12:59:24Z</time>
      </trkpt>
      <trkpt lat="49.66703" lon="4.94233">
        <ele>214.51</ele>
        <time>2020-07-28T12:59:41Z</time>
      </trkpt>
      <trkpt lat="49.66711" lon="4.94258">
        <ele>215.47</ele>
        <time>2020-07-28T12:59:55Z</time>
      </trkpt>
      <trkpt lat="49.66718" lon="4.9428">
        <ele>213.55</ele>
        <time>2020-07-28T13:00:11Z</time>
      </trkpt>
      <trkpt lat="49.66719" lon="4.94283">
        <ele>213.07</ele>
        <time>2020-07-28T13:00:13Z</time>
      </trkpt>
      <trkpt lat="49.66726" lon="4.94305">
        <ele>212.59</ele>
        <time>2020-07-28T13:00:27Z</time>
      </trkpt>
      <trkpt lat="49.66729" lon="4.94313">
        <ele>214.03</ele>
        <time>2020-07-28T13:00:32Z</time>
      </trkpt>
      <trkpt lat="49.66731" lon="4.94321">
        <ele>213.55</ele>
        <time>2020-07-28T13:00:37Z</time>
      </trkpt>
      <trkpt lat="49.66733" lon="4.94327">
        <ele>212.11</ele>
        <time>2020-07-28T13:00:41Z</time>
      </trkpt>
      <trkpt lat="49.66735" lon="4.94339">
        <ele>207.78</ele>
        <time>2020-07-28T13:00:52Z</time>
      </trkpt>
      <trkpt lat="49.66737" lon="4.94358">
        <ele>206.82</ele>
        <time>2020-07-28T13:01:02Z</time>
      </trkpt>
      <trkpt lat="49.66744" lon="4.94383">
        <ele>204.42</ele>
        <time>2020-07-28T13:01:21Z</time>
      </trkpt>
      <trkpt lat="49.66752" lon="4.94409">
        <ele>203.94</ele>
        <time>2020-07-28T13:01:35Z</time>
      </trkpt>
      <trkpt lat="49.66754" lon="4.94419">
        <ele>203.46</ele>
        <time>2020-07-28T13:01:41Z</time>
      </trkpt>
      <trkpt lat="49.66758" lon="4.94434">
        <ele>202.49</ele>
        <time>2020-07-28T13:01:52Z</time>
      </trkpt>
      <trkpt lat="49.66763" lon="4.94441">
        <ele>202.01</ele>
        <time>2020-07-28T13:01:59Z</time>
      </trkpt>
      <trkpt lat="49.66769" lon="4.94461">
        <ele>201.53</ele>
        <time>2020-07-28T13:02:14Z</time>
      </trkpt>
      <trkpt lat="49.66775" lon="4.94484">
        <ele>201.05</ele>
        <time>2020-07-28T13:02:28Z</time>
      </trkpt>
      <trkpt lat="49.66779" lon="4.94507">
        <ele>199.13</ele>
        <time>2020-07-28T13:02:42Z</time>
      </trkpt>
      <trkpt lat="49.66787" lon="4.94531">
        <ele>200.57</ele>
        <time>2020-07-28T13:02:57Z</time>
      </trkpt>
      <trkpt lat="49.66791" lon="4.94545">
        <ele>197.21</ele>
        <time>2020-07-28T13:03:08Z</time>
      </trkpt>
      <trkpt lat="49.66795" lon="4.94564">
        <ele>195.77</ele>
        <time>2020-07-28T13:03:18Z</time>
      </trkpt>
      <trkpt lat="49.66805" lon="4.94585">
        <ele>193.84</ele>
        <time>2020-07-28T13:03:34Z</time>
      </trkpt>
      <trkpt lat="49.66805" lon="4.94593">
        <ele>192.4</ele>
        <time>2020-07-28T13:03:40Z</time>
      </trkpt>
      <trkpt lat="49.66805" lon="4.94604">
        <ele>192.4</ele>
        <time>2020-07-28T13:03:45Z</time>
      </trkpt>
      <trkpt lat="49.66805" lon="4.94618">
        <ele>192.88</ele>
        <time>2020-07-28T13:03:52Z</time>
      </trkpt>
      <trkpt lat="49.66805" lon="4.94643">
        <ele>193.36</ele>
        <time>2020-07-28T13:04:08Z</time>
      </trkpt>
      <trkpt lat="49.66805" lon="4.94679">
        <ele>197.69</ele>
        <time>2020-07-28T13:04:26Z</time>
      </trkpt>
      <trkpt lat="49.66805" lon="4.94706">
        <ele>196.73</ele>
        <time>2020-07-28T13:04:43Z</time>
      </trkpt>
      <trkpt lat="49.66805" lon="4.94728">
        <ele>193.36</ele>
        <time>2020-07-28T13:04:57Z</time>
      </trkpt>
      <trkpt lat="49.66805" lon="4.94762">
        <ele>193.84</ele>
        <time>2020-07-28T13:05:15Z</time>
      </trkpt>
      <trkpt lat="49.66805" lon="4.94789">
        <ele>193.36</ele>
        <time>2020-07-28T13:05:31Z</time>
      </trkpt>
      <trkpt lat="49.66802" lon="4.948">
        <ele>190</ele>
        <time>2020-07-28T13:05:44Z</time>
      </trkpt>
      <trkpt lat="49.668" lon="4.94815">
        <ele>188.56</ele>
        <time>2020-07-28T13:05:57Z</time>
      </trkpt>
      <trkpt lat="49.66792" lon="4.94849">
        <ele>189.04</ele>
        <time>2020-07-28T13:06:14Z</time>
      </trkpt>
      <trkpt lat="49.6679" lon="4.9487">
        <ele>186.15</ele>
        <time>2020-07-28T13:06:31Z</time>
      </trkpt>
      <trkpt lat="49.66788" lon="4.94888">
        <ele>184.23</ele>
        <time>2020-07-28T13:06:41Z</time>
      </trkpt>
      <trkpt lat="49.66785" lon="4.94917">
        <ele>180.87</ele>
        <time>2020-07-28T13:06:59Z</time>
      </trkpt>
      <trkpt lat="49.66781" lon="4.94945">
        <ele>182.31</ele>
        <time>2020-07-28T13:07:13Z</time>
      </trkpt>
      <trkpt lat="49.66779" lon="4.94968">
        <ele>180.38</ele>
        <time>2020-07-28T13:07:30Z</time>
      </trkpt>
      <trkpt lat="49.66775" lon="4.94994">
        <ele>179.42</ele>
        <time>2020-07-28T13:07:43Z</time>
      </trkpt>
      <trkpt lat="49.66774" lon="4.95015">
        <ele>180.38</ele>
        <time>2020-07-28T13:07:58Z</time>
      </trkpt>
      <trkpt lat="49.66768" lon="4.95037">
        <ele>177.98</ele>
        <time>2020-07-28T13:08:13Z</time>
      </trkpt>
      <trkpt lat="49.66763" lon="4.95062">
        <ele>178.94</ele>
        <time>2020-07-28T13:08:29Z</time>
      </trkpt>
      <trkpt lat="49.66759" lon="4.95087">
        <ele>177.5</ele>
        <time>2020-07-28T13:08:42Z</time>
      </trkpt>
      <trkpt lat="49.66758" lon="4.9509">
        <ele>177.02</ele>
        <time>2020-07-28T13:08:44Z</time>
      </trkpt>
      <trkpt lat="49.66754" lon="4.95103">
        <ele>178.46</ele>
        <time>2020-07-28T13:08:53Z</time>
      </trkpt>
      <trkpt lat="49.66746" lon="4.95122">
        <ele>177.02</ele>
        <time>2020-07-28T13:09:09Z</time>
      </trkpt>
      <trkpt lat="49.66739" lon="4.95143">
        <ele>175.1</ele>
        <time>2020-07-28T13:09:22Z</time>
      </trkpt>
      <trkpt lat="49.66729" lon="4.95166">
        <ele>172.69</ele>
        <time>2020-07-28T13:09:39Z</time>
      </trkpt>
      <trkpt lat="49.66721" lon="4.95195">
        <ele>166.93</ele>
        <time>2020-07-28T13:09:57Z</time>
      </trkpt>
      <trkpt lat="49.66711" lon="4.95219">
        <ele>165.96</ele>
        <time>2020-07-28T13:10:17Z</time>
      </trkpt>
      <trkpt lat="49.66702" lon="4.95239">
        <ele>166.45</ele>
        <time>2020-07-28T13:10:34Z</time>
      </trkpt>
      <trkpt lat="49.66693" lon="4.95255">
        <ele>165.96</ele>
        <time>2020-07-28T13:10:48Z</time>
      </trkpt>
      <trkpt lat="49.66683" lon="4.95273">
        <ele>167.41</ele>
        <time>2020-07-28T13:11:03Z</time>
      </trkpt>
      <trkpt lat="49.66672" lon="4.95292">
        <ele>166.93</ele>
        <time>2020-07-28T13:11:18Z</time>
      </trkpt>
      <trkpt lat="49.66662" lon="4.95309">
        <ele>166.45</ele>
        <time>2020-07-28T13:11:33Z</time>
      </trkpt>
      <trkpt lat="49.66658" lon="4.95315">
        <ele>166.93</ele>
        <time>2020-07-28T13:11:48Z</time>
      </trkpt>
      <trkpt lat="49.66646" lon="4.95329">
        <ele>166.45</ele>
        <time>2020-07-28T13:12:05Z</time>
      </trkpt>
      <trkpt lat="49.66643" lon="4.95333">
        <ele>165.96</ele>
        <time>2020-07-28T13:12:09Z</time>
      </trkpt>
      <trkpt lat="49.66635" lon="4.95337">
        <ele>165.48</ele>
        <time>2020-07-28T13:12:17Z</time>
      </trkpt>
      <trkpt lat="49.66625" lon="4.95319">
        <ele>161.16</ele>
        <time>2020-07-28T13:12:34Z</time>
      </trkpt>
      <trkpt lat="49.66616" lon="4.95303">
        <ele>161.16</ele>
        <time>2020-07-28T13:12:50Z</time>
      </trkpt>
      <trkpt lat="49.66609" lon="4.95292">
        <ele>160.68</ele>
        <time>2020-07-28T13:13:02Z</time>
      </trkpt>
      <trkpt lat="49.66607" lon="4.95287">
        <ele>160.2</ele>
        <time>2020-07-28T13:13:06Z</time>
      </trkpt>
      <trkpt lat="49.666" lon="4.95279">
        <ele>161.64</ele>
        <time>2020-07-28T13:13:12Z</time>
      </trkpt>
      <trkpt lat="49.66584" lon="4.95264">
        <ele>162.6</ele>
        <time>2020-07-28T13:13:29Z</time>
      </trkpt>
      <trkpt lat="49.66566" lon="4.95254">
        <ele>164.04</ele>
        <time>2020-07-28T13:13:45Z</time>
      </trkpt>
      <trkpt lat="49.66545" lon="4.95245">
        <ele>164.52</ele>
        <time>2020-07-28T13:14:02Z</time>
      </trkpt>
      <trkpt lat="49.6653" lon="4.9524">
        <ele>166.45</ele>
        <time>2020-07-28T13:14:15Z</time>
      </trkpt>
      <trkpt lat="49.6652" lon="4.95242">
        <ele>168.85</ele>
        <time>2020-07-28T13:14:22Z</time>
      </trkpt>
      <trkpt lat="49.66514" lon="4.95266">
        <ele>169.33</ele>
        <time>2020-07-28T13:14:39Z</time>
      </trkpt>
      <trkpt lat="49.66512" lon="4.95282">
        <ele>168.85</ele>
        <time>2020-07-28T13:14:46Z</time>
      </trkpt>
      <trkpt lat="49.6651" lon="4.95285">
        <ele>168.85</ele>
        <time>2020-07-28T13:14:48Z</time>
      </trkpt>
      <trkpt lat="49.66507" lon="4.95292">
        <ele>168.37</ele>
        <time>2020-07-28T13:14:52Z</time>
      </trkpt>
      <trkpt lat="49.66496" lon="4.95325">
        <ele>167.89</ele>
        <time>2020-07-28T13:15:09Z</time>
      </trkpt>
      <trkpt lat="49.66488" lon="4.95355">
        <ele>167.41</ele>
        <time>2020-07-28T13:15:26Z</time>
      </trkpt>
      <trkpt lat="49.66482" lon="4.95373">
        <ele>166.93</ele>
        <time>2020-07-28T13:15:41Z</time>
      </trkpt>
      <trkpt lat="49.66472" lon="4.95395">
        <ele>166.45</ele>
        <time>2020-07-28T13:16:00Z</time>
      </trkpt>
      <trkpt lat="49.66464" lon="4.95426">
        <ele>165.48</ele>
        <time>2020-07-28T13:16:15Z</time>
      </trkpt>
      <trkpt lat="49.66461" lon="4.95453">
        <ele>164.52</ele>
        <time>2020-07-28T13:16:27Z</time>
      </trkpt>
      <trkpt lat="49.66467" lon="4.95474">
        <ele>162.6</ele>
        <time>2020-07-28T13:16:43Z</time>
      </trkpt>
      <trkpt lat="49.66472" lon="4.95489">
        <ele>161.64</ele>
        <time>2020-07-28T13:16:52Z</time>
      </trkpt>
      <trkpt lat="49.66482" lon="4.95512">
        <ele>163.56</ele>
        <time>2020-07-28T13:17:04Z</time>
      </trkpt>
      <trkpt lat="49.66489" lon="4.95512">
        <ele>165</ele>
        <time>2020-07-28T13:17:17Z</time>
      </trkpt>
      <trkpt lat="49.66493" lon="4.9551">
        <ele>163.08</ele>
        <time>2020-07-28T13:17:32Z</time>
      </trkpt>
      <trkpt lat="49.66509" lon="4.95494">
        <ele>163.08</ele>
        <time>2020-07-28T13:17:48Z</time>
      </trkpt>
      <trkpt lat="49.66521" lon="4.95494">
        <ele>162.6</ele>
        <time>2020-07-28T13:18:04Z</time>
      </trkpt>
      <trkpt lat="49.66528" lon="4.9549">
        <ele>161.64</ele>
        <time>2020-07-28T13:18:19Z</time>
      </trkpt>
      <trkpt lat="49.66536" lon="4.95496">
        <ele>160.68</ele>
        <time>2020-07-28T13:18:31Z</time>
      </trkpt>
      <trkpt lat="49.66541" lon="4.955">
        <ele>160.2</ele>
        <time>2020-07-28T13:18:35Z</time>
      </trkpt>
      <trkpt lat="49.66544" lon="4.95506">
        <ele>159.72</ele>
        <time>2020-07-28T13:18:39Z</time>
      </trkpt>
      <trkpt lat="49.66565" lon="4.95519">
        <ele>161.16</ele>
        <time>2020-07-28T13:18:56Z</time>
      </trkpt>
      <trkpt lat="49.66582" lon="4.9553">
        <ele>164.52</ele>
        <time>2020-07-28T13:19:10Z</time>
      </trkpt>
      <trkpt lat="49.666" lon="4.95546">
        <ele>165</ele>
        <time>2020-07-28T13:19:29Z</time>
      </trkpt>
      <trkpt lat="49.66621" lon="4.9556">
        <ele>166.93</ele>
        <time>2020-07-28T13:19:43Z</time>
      </trkpt>
      <trkpt lat="49.66634" lon="4.95573">
        <ele>170.77</ele>
        <time>2020-07-28T13:19:58Z</time>
      </trkpt>
      <trkpt lat="49.66645" lon="4.95584">
        <ele>172.69</ele>
        <time>2020-07-28T13:20:12Z</time>
      </trkpt>
      <trkpt lat="49.66654" lon="4.95598">
        <ele>173.66</ele>
        <time>2020-07-28T13:20:26Z</time>
      </trkpt>
      <trkpt lat="49.66666" lon="4.95615">
        <ele>173.17</ele>
        <time>2020-07-28T13:20:42Z</time>
      </trkpt>
      <trkpt lat="49.66679" lon="4.95629">
        <ele>172.21</ele>
        <time>2020-07-28T13:20:57Z</time>
      </trkpt>
      <trkpt lat="49.66698" lon="4.95656">
        <ele>169.33</ele>
        <time>2020-07-28T13:21:14Z</time>
      </trkpt>
      <trkpt lat="49.66704" lon="4.95667">
        <ele>169.81</ele>
        <time>2020-07-28T13:21:25Z</time>
      </trkpt>
      <trkpt lat="49.66705" lon="4.95671">
        <ele>170.77</ele>
        <time>2020-07-28T13:21:28Z</time>
      </trkpt>
      <trkpt lat="49.66711" lon="4.95688">
        <ele>174.14</ele>
        <time>2020-07-28T13:21:43Z</time>
      </trkpt>
      <trkpt lat="49.66721" lon="4.95695">
        <ele>171.73</ele>
        <time>2020-07-28T13:22:03Z</time>
      </trkpt>
      <trkpt lat="49.66721" lon="4.95691">
        <ele>170.77</ele>
        <time>2020-07-28T13:22:17Z</time>
      </trkpt>
      <trkpt lat="49.66726" lon="4.957">
        <ele>170.77</ele>
        <time>2020-07-28T13:22:23Z</time>
      </trkpt>
      <trkpt lat="49.66734" lon="4.9572">
        <ele>170.77</ele>
        <time>2020-07-28T13:22:40Z</time>
      </trkpt>
      <trkpt lat="49.66742" lon="4.95739">
        <ele>166.45</ele>
        <time>2020-07-28T13:22:53Z</time>
      </trkpt>
      <trkpt lat="49.66747" lon="4.95745">
        <ele>165.48</ele>
        <time>2020-07-28T13:22:58Z</time>
      </trkpt>
      <trkpt lat="49.66748" lon="4.95749">
        <ele>165.96</ele>
        <time>2020-07-28T13:23:01Z</time>
      </trkpt>
      <trkpt lat="49.66749" lon="4.9576">
        <ele>167.41</ele>
        <time>2020-07-28T13:23:09Z</time>
      </trkpt>
      <trkpt lat="49.6676" lon="4.95776">
        <ele>166.93</ele>
        <time>2020-07-28T13:23:24Z</time>
      </trkpt>
      <trkpt lat="49.66772" lon="4.95795">
        <ele>166.45</ele>
        <time>2020-07-28T13:23:38Z</time>
      </trkpt>
      <trkpt lat="49.66782" lon="4.95811">
        <ele>166.93</ele>
        <time>2020-07-28T13:23:53Z</time>
      </trkpt>
      <trkpt lat="49.66799" lon="4.95827">
        <ele>165</ele>
        <time>2020-07-28T13:24:08Z</time>
      </trkpt>
      <trkpt lat="49.66814" lon="4.95841">
        <ele>163.56</ele>
        <time>2020-07-28T13:24:26Z</time>
      </trkpt>
      <trkpt lat="49.66833" lon="4.95861">
        <ele>158.27</ele>
        <time>2020-07-28T13:24:44Z</time>
      </trkpt>
      <trkpt lat="49.66847" lon="4.95879">
        <ele>158.75</ele>
        <time>2020-07-28T13:25:02Z</time>
      </trkpt>
      <trkpt lat="49.66844" lon="4.959">
        <ele>159.24</ele>
        <time>2020-07-28T13:25:17Z</time>
      </trkpt>
      <trkpt lat="49.66838" lon="4.95923">
        <ele>161.16</ele>
        <time>2020-07-28T13:25:32Z</time>
      </trkpt>
      <trkpt lat="49.66831" lon="4.95947">
        <ele>162.12</ele>
        <time>2020-07-28T13:25:47Z</time>
      </trkpt>
      <trkpt lat="49.6683" lon="4.95951">
        <ele>162.12</ele>
        <time>2020-07-28T13:25:50Z</time>
      </trkpt>
      <trkpt lat="49.66827" lon="4.95957">
        <ele>162.12</ele>
        <time>2020-07-28T13:25:54Z</time>
      </trkpt>
      <trkpt lat="49.66816" lon="4.95981">
        <ele>160.68</ele>
        <time>2020-07-28T13:26:11Z</time>
      </trkpt>
      <trkpt lat="49.66814" lon="4.95996">
        <ele>160.68</ele>
        <time>2020-07-28T13:26:22Z</time>
      </trkpt>
      <trkpt lat="49.66825" lon="4.96017">
        <ele>159.24</ele>
        <time>2020-07-28T13:26:37Z</time>
      </trkpt>
      <trkpt lat="49.66837" lon="4.96025">
        <ele>158.75</ele>
        <time>2020-07-28T13:26:48Z</time>
      </trkpt>
      <trkpt lat="49.66852" lon="4.96008">
        <ele>157.79</ele>
        <time>2020-07-28T13:27:04Z</time>
      </trkpt>
      <trkpt lat="49.66861" lon="4.95988">
        <ele>156.35</ele>
        <time>2020-07-28T13:27:18Z</time>
      </trkpt>
      <trkpt lat="49.66871" lon="4.95967">
        <ele>155.39</ele>
        <time>2020-07-28T13:27:33Z</time>
      </trkpt>
      <trkpt lat="49.66876" lon="4.95959">
        <ele>153.95</ele>
        <time>2020-07-28T13:27:47Z</time>
      </trkpt>
      <trkpt lat="49.66877" lon="4.95957">
        <ele>154.43</ele>
        <time>2020-07-28T13:28:01Z</time>
      </trkpt>
      <trkpt lat="49.66875" lon="4.95961">
        <ele>154.43</ele>
        <time>2020-07-28T13:28:06Z</time>
      </trkpt>
      <trkpt lat="49.66866" lon="4.95986">
        <ele>153.47</ele>
        <time>2020-07-28T13:28:23Z</time>
      </trkpt>
      <trkpt lat="49.66858" lon="4.96005">
        <ele>152.03</ele>
        <time>2020-07-28T13:28:41Z</time>
      </trkpt>
      <trkpt lat="49.66848" lon="4.9603">
        <ele>154.43</ele>
        <time>2020-07-28T13:28:57Z</time>
      </trkpt>
      <trkpt lat="49.6684" lon="4.96049">
        <ele>156.35</ele>
        <time>2020-07-28T13:29:11Z</time>
      </trkpt>
      <trkpt lat="49.66831" lon="4.96063">
        <ele>159.24</ele>
        <time>2020-07-28T13:29:27Z</time>
      </trkpt>
      <trkpt lat="49.66818" lon="4.96091">
        <ele>156.35</ele>
        <time>2020-07-28T13:29:45Z</time>
      </trkpt>
      <trkpt lat="49.6681" lon="4.96109">
        <ele>155.39</ele>
        <time>2020-07-28T13:29:59Z</time>
      </trkpt>
      <trkpt lat="49.668" lon="4.96135">
        <ele>153.95</ele>
        <time>2020-07-28T13:30:16Z</time>
      </trkpt>
      <trkpt lat="49.66793" lon="4.96163">
        <ele>152.51</ele>
        <time>2020-07-28T13:30:32Z</time>
      </trkpt>
      <trkpt lat="49.66786" lon="4.96187">
        <ele>154.43</ele>
        <time>2020-07-28T13:30:48Z</time>
      </trkpt>
      <trkpt lat="49.66778" lon="4.96213">
        <ele>154.91</ele>
        <time>2020-07-28T13:31:05Z</time>
      </trkpt>
      <trkpt lat="49.66772" lon="4.96237">
        <ele>155.39</ele>
        <time>2020-07-28T13:31:21Z</time>
      </trkpt>
      <trkpt lat="49.66767" lon="4.96265">
        <ele>155.39</ele>
        <time>2020-07-28T13:31:37Z</time>
      </trkpt>
      <trkpt lat="49.66766" lon="4.96274">
        <ele>155.39</ele>
        <time>2020-07-28T13:31:41Z</time>
      </trkpt>
      <trkpt lat="49.6676" lon="4.96303">
        <ele>154.91</ele>
        <time>2020-07-28T13:31:58Z</time>
      </trkpt>
      <trkpt lat="49.66758" lon="4.96317">
        <ele>155.39</ele>
        <time>2020-07-28T13:32:05Z</time>
      </trkpt>
      <trkpt lat="49.66758" lon="4.96328">
        <ele>154.91</ele>
        <time>2020-07-28T13:32:14Z</time>
      </trkpt>
      <trkpt lat="49.66757" lon="4.96338">
        <ele>155.39</ele>
        <time>2020-07-28T13:32:19Z</time>
      </trkpt>
      <trkpt lat="49.6676" lon="4.96371">
        <ele>154.91</ele>
        <time>2020-07-28T13:32:35Z</time>
      </trkpt>
      <trkpt lat="49.66764" lon="4.96396">
        <ele>152.99</ele>
        <time>2020-07-28T13:32:49Z</time>
      </trkpt>
      <trkpt lat="49.6677" lon="4.96417">
        <ele>152.51</ele>
        <time>2020-07-28T13:33:04Z</time>
      </trkpt>
      <trkpt lat="49.66771" lon="4.96423">
        <ele>151.54</ele>
        <time>2020-07-28T13:33:07Z</time>
      </trkpt>
      <trkpt lat="49.66773" lon="4.96431">
        <ele>151.54</ele>
        <time>2020-07-28T13:33:11Z</time>
      </trkpt>
      <trkpt lat="49.66779" lon="4.96458">
        <ele>153.95</ele>
        <time>2020-07-28T13:33:29Z</time>
      </trkpt>
      <trkpt lat="49.66785" lon="4.96484">
        <ele>154.91</ele>
        <time>2020-07-28T13:33:43Z</time>
      </trkpt>
      <trkpt lat="49.66786" lon="4.96495">
        <ele>154.43</ele>
        <time>2020-07-28T13:33:51Z</time>
      </trkpt>
      <trkpt lat="49.66787" lon="4.96499">
        <ele>154.43</ele>
        <time>2020-07-28T13:33:53Z</time>
      </trkpt>
      <trkpt lat="49.66792" lon="4.9652">
        <ele>155.39</ele>
        <time>2020-07-28T13:34:07Z</time>
      </trkpt>
      <trkpt lat="49.66792" lon="4.96525">
        <ele>154.43</ele>
        <time>2020-07-28T13:34:10Z</time>
      </trkpt>
      <trkpt lat="49.66794" lon="4.96535">
        <ele>152.99</ele>
        <time>2020-07-28T13:34:15Z</time>
      </trkpt>
      <trkpt lat="49.66796" lon="4.96552">
        <ele>152.03</ele>
        <time>2020-07-28T13:34:26Z</time>
      </trkpt>
      <trkpt lat="49.66797" lon="4.96564">
        <ele>151.54</ele>
        <time>2020-07-28T13:34:33Z</time>
      </trkpt>
      <trkpt lat="49.66798" lon="4.96576">
        <ele>152.99</ele>
        <time>2020-07-28T13:34:39Z</time>
      </trkpt>
      <trkpt lat="49.66804" lon="4.96598">
        <ele>154.43</ele>
        <time>2020-07-28T13:34:54Z</time>
      </trkpt>
      <trkpt lat="49.66808" lon="4.9662">
        <ele>156.35</ele>
        <time>2020-07-28T13:35:09Z</time>
      </trkpt>
      <trkpt lat="49.66809" lon="4.9663">
        <ele>157.31</ele>
        <time>2020-07-28T13:35:15Z</time>
      </trkpt>
      <trkpt lat="49.66811" lon="4.96643">
        <ele>158.75</ele>
        <time>2020-07-28T13:35:21Z</time>
      </trkpt>
      <trkpt lat="49.66816" lon="4.96664">
        <ele>159.24</ele>
        <time>2020-07-28T13:35:36Z</time>
      </trkpt>
      <trkpt lat="49.66817" lon="4.96672">
        <ele>158.75</ele>
        <time>2020-07-28T13:35:40Z</time>
      </trkpt>
      <trkpt lat="49.66817" lon="4.96677">
        <ele>158.75</ele>
        <time>2020-07-28T13:35:42Z</time>
      </trkpt>
      <trkpt lat="49.66817" lon="4.96701">
        <ele>160.2</ele>
        <time>2020-07-28T13:35:56Z</time>
      </trkpt>
      <trkpt lat="49.6682" lon="4.96713">
        <ele>160.2</ele>
        <time>2020-07-28T13:36:04Z</time>
      </trkpt>
      <trkpt lat="49.66823" lon="4.96738">
        <ele>156.35</ele>
        <time>2020-07-28T13:36:15Z</time>
      </trkpt>
      <trkpt lat="49.66824" lon="4.96754">
        <ele>152.99</ele>
        <time>2020-07-28T13:36:27Z</time>
      </trkpt>
      <trkpt lat="49.66821" lon="4.96788">
        <ele>152.99</ele>
        <time>2020-07-28T13:36:46Z</time>
      </trkpt>
      <trkpt lat="49.66814" lon="4.96816">
        <ele>154.91</ele>
        <time>2020-07-28T13:37:04Z</time>
      </trkpt>
      <trkpt lat="49.66807" lon="4.96838">
        <ele>157.79</ele>
        <time>2020-07-28T13:37:21Z</time>
      </trkpt>
      <trkpt lat="49.66801" lon="4.96857">
        <ele>156.83</ele>
        <time>2020-07-28T13:37:34Z</time>
      </trkpt>
      <trkpt lat="49.66798" lon="4.9686">
        <ele>156.83</ele>
        <time>2020-07-28T13:37:37Z</time>
      </trkpt>
      <trkpt lat="49.66796" lon="4.96866">
        <ele>156.83</ele>
        <time>2020-07-28T13:37:41Z</time>
      </trkpt>
      <trkpt lat="49.66787" lon="4.96887">
        <ele>157.31</ele>
        <time>2020-07-28T13:37:57Z</time>
      </trkpt>
      <trkpt lat="49.66776" lon="4.96908">
        <ele>159.24</ele>
        <time>2020-07-28T13:38:14Z</time>
      </trkpt>
      <trkpt lat="49.66766" lon="4.96922">
        <ele>160.68</ele>
        <time>2020-07-28T13:38:26Z</time>
      </trkpt>
      <trkpt lat="49.66754" lon="4.96935">
        <ele>162.6</ele>
        <time>2020-07-28T13:38:39Z</time>
      </trkpt>
      <trkpt lat="49.66751" lon="4.96937">
        <ele>163.08</ele>
        <time>2020-07-28T13:38:44Z</time>
      </trkpt>
      <trkpt lat="49.66746" lon="4.96941">
        <ele>164.04</ele>
        <time>2020-07-28T13:38:49Z</time>
      </trkpt>
      <trkpt lat="49.66736" lon="4.96962">
        <ele>164.52</ele>
        <time>2020-07-28T13:39:06Z</time>
      </trkpt>
      <trkpt lat="49.66732" lon="4.96973">
        <ele>163.56</ele>
        <time>2020-07-28T13:39:12Z</time>
      </trkpt>
      <trkpt lat="49.66727" lon="4.96985">
        <ele>162.12</ele>
        <time>2020-07-28T13:39:18Z</time>
      </trkpt>
      <trkpt lat="49.66712" lon="4.97005">
        <ele>157.79</ele>
        <time>2020-07-28T13:39:36Z</time>
      </trkpt>
      <trkpt lat="49.667" lon="4.97025">
        <ele>155.39</ele>
        <time>2020-07-28T13:39:53Z</time>
      </trkpt>
      <trkpt lat="49.66689" lon="4.97043">
        <ele>155.39</ele>
        <time>2020-07-28T13:40:07Z</time>
      </trkpt>
      <trkpt lat="49.66675" lon="4.97071">
        <ele>156.35</ele>
        <time>2020-07-28T13:40:26Z</time>
      </trkpt>
      <trkpt lat="49.66664" lon="4.97097">
        <ele>154.43</ele>
        <time>2020-07-28T13:40:43Z</time>
      </trkpt>
      <trkpt lat="49.66656" lon="4.97124">
        <ele>154.91</ele>
        <time>2020-07-28T13:41:01Z</time>
      </trkpt>
      <trkpt lat="49.66649" lon="4.97147">
        <ele>155.39</ele>
        <time>2020-07-28T13:41:17Z</time>
      </trkpt>
      <trkpt lat="49.6664" lon="4.97177">
        <ele>154.91</ele>
        <time>2020-07-28T13:41:35Z</time>
      </trkpt>
      <trkpt lat="49.66632" lon="4.97202">
        <ele>154.91</ele>
        <time>2020-07-28T13:41:54Z</time>
      </trkpt>
      <trkpt lat="49.66624" lon="4.9723">
        <ele>155.39</ele>
        <time>2020-07-28T13:42:09Z</time>
      </trkpt>
      <trkpt lat="49.66622" lon="4.97238">
        <ele>155.39</ele>
        <time>2020-07-28T13:42:19Z</time>
      </trkpt>
      <trkpt lat="49.66616" lon="4.97249">
        <ele>155.87</ele>
        <time>2020-07-28T13:42:27Z</time>
      </trkpt>
      <trkpt lat="49.66605" lon="4.97273">
        <ele>155.39</ele>
        <time>2020-07-28T13:42:45Z</time>
      </trkpt>
      <trkpt lat="49.66592" lon="4.97299">
        <ele>154.91</ele>
        <time>2020-07-28T13:43:03Z</time>
      </trkpt>
      <trkpt lat="49.66581" lon="4.97319">
        <ele>154.43</ele>
        <time>2020-07-28T13:43:20Z</time>
      </trkpt>
      <trkpt lat="49.66571" lon="4.97339">
        <ele>153.95</ele>
        <time>2020-07-28T13:43:36Z</time>
      </trkpt>
      <trkpt lat="49.66558" lon="4.97364">
        <ele>153.95</ele>
        <time>2020-07-28T13:43:54Z</time>
      </trkpt>
      <trkpt lat="49.66548" lon="4.9738">
        <ele>152.03</ele>
        <time>2020-07-28T13:44:10Z</time>
      </trkpt>
      <trkpt lat="49.66538" lon="4.97395">
        <ele>152.03</ele>
        <time>2020-07-28T13:44:23Z</time>
      </trkpt>
      <trkpt lat="49.66526" lon="4.97414">
        <ele>153.47</ele>
        <time>2020-07-28T13:44:38Z</time>
      </trkpt>
      <trkpt lat="49.66518" lon="4.97432">
        <ele>157.31</ele>
        <time>2020-07-28T13:44:51Z</time>
      </trkpt>
      <trkpt lat="49.66514" lon="4.97452">
        <ele>157.79</ele>
        <time>2020-07-28T13:45:04Z</time>
      </trkpt>
      <trkpt lat="49.66504" lon="4.97474">
        <ele>158.27</ele>
        <time>2020-07-28T13:45:21Z</time>
      </trkpt>
      <trkpt lat="49.665" lon="4.97481">
        <ele>157.79</ele>
        <time>2020-07-28T13:45:27Z</time>
      </trkpt>
      <trkpt lat="49.66489" lon="4.97506">
        <ele>156.35</ele>
        <time>2020-07-28T13:45:44Z</time>
      </trkpt>
      <trkpt lat="49.66484" lon="4.97513">
        <ele>156.83</ele>
        <time>2020-07-28T13:45:52Z</time>
      </trkpt>
      <trkpt lat="49.66473" lon="4.97524">
        <ele>158.27</ele>
        <time>2020-07-28T13:46:06Z</time>
      </trkpt>
      <trkpt lat="49.66474" lon="4.97525">
        <ele>158.75</ele>
        <time>2020-07-28T13:46:25Z</time>
      </trkpt>
      <trkpt lat="49.66473" lon="4.97528">
        <ele>158.27</ele>
        <time>2020-07-28T13:46:39Z</time>
      </trkpt>
      <trkpt lat="49.66472" lon="4.97529">
        <ele>157.31</ele>
        <time>2020-07-28T13:47:09Z</time>
      </trkpt>
      <trkpt lat="49.66473" lon="4.9753">
        <ele>157.31</ele>
        <time>2020-07-28T13:47:38Z</time>
      </trkpt>
      <trkpt lat="49.66473" lon="4.9753">
        <ele>157.79</ele>
        <time>2020-07-28T13:48:12Z</time>
      </trkpt>
      <trkpt lat="49.66473" lon="4.9753">
        <ele>157.79</ele>
        <time>2020-07-28T13:48:37Z</time>
      </trkpt>
      <trkpt lat="49.66473" lon="4.9753">
        <ele>157.31</ele>
        <time>2020-07-28T13:49:06Z</time>
      </trkpt>
      <trkpt lat="49.66473" lon="4.9753">
        <ele>157.31</ele>
        <time>2020-07-28T13:49:39Z</time>
      </trkpt>
      <trkpt lat="49.66473" lon="4.9753">
        <ele>157.31</ele>
        <time>2020-07-28T13:50:12Z</time>
      </trkpt>
      <trkpt lat="49.66473" lon="4.9753">
        <ele>157.31</ele>
        <time>2020-07-28T13:50:26Z</time>
      </trkpt>
      <trkpt lat="49.66474" lon="4.9753">
        <ele>158.27</ele>
        <time>2020-07-28T13:50:59Z</time>
      </trkpt>
      <trkpt lat="49.66474" lon="4.9753">
        <ele>158.27</ele>
        <time>2020-07-28T13:51:21Z</time>
      </trkpt>
      <trkpt lat="49.66474" lon="4.9753">
        <ele>158.75</ele>
        <time>2020-07-28T13:51:52Z</time>
      </trkpt>
      <trkpt lat="49.66474" lon="4.97531">
        <ele>159.24</ele>
        <time>2020-07-28T13:52:16Z</time>
      </trkpt>
      <trkpt lat="49.66474" lon="4.97541">
        <ele>158.75</ele>
        <time>2020-07-28T13:52:29Z</time>
      </trkpt>
      <trkpt lat="49.66464" lon="4.97559">
        <ele>156.83</ele>
        <time>2020-07-28T13:52:45Z</time>
      </trkpt>
      <trkpt lat="49.66453" lon="4.9758">
        <ele>155.87</ele>
        <time>2020-07-28T13:53:03Z</time>
      </trkpt>
      <trkpt lat="49.66448" lon="4.97592">
        <ele>154.91</ele>
        <time>2020-07-28T13:53:18Z</time>
      </trkpt>
      <trkpt lat="49.66445" lon="4.97598">
        <ele>155.39</ele>
        <time>2020-07-28T13:53:36Z</time>
      </trkpt>
      <trkpt lat="49.66433" lon="4.97619">
        <ele>153.47</ele>
        <time>2020-07-28T13:53:53Z</time>
      </trkpt>
      <trkpt lat="49.66421" lon="4.97644">
        <ele>152.99</ele>
        <time>2020-07-28T13:54:12Z</time>
      </trkpt>
      <trkpt lat="49.66409" lon="4.97668">
        <ele>152.51</ele>
        <time>2020-07-28T13:54:29Z</time>
      </trkpt>
      <trkpt lat="49.66409" lon="4.97669">
        <ele>152.99</ele>
        <time>2020-07-28T13:54:31Z</time>
      </trkpt>
      <trkpt lat="49.66403" lon="4.97684">
        <ele>153.47</ele>
        <time>2020-07-28T13:54:45Z</time>
      </trkpt>
      <trkpt lat="49.6639" lon="4.97709">
        <ele>153.47</ele>
        <time>2020-07-28T13:55:03Z</time>
      </trkpt>
      <trkpt lat="49.66377" lon="4.97731">
        <ele>153.95</ele>
        <time>2020-07-28T13:55:20Z</time>
      </trkpt>
      <trkpt lat="49.66364" lon="4.97757">
        <ele>152.99</ele>
        <time>2020-07-28T13:55:39Z</time>
      </trkpt>
      <trkpt lat="49.66356" lon="4.97772">
        <ele>152.03</ele>
        <time>2020-07-28T13:55:53Z</time>
      </trkpt>
      <trkpt lat="49.66349" lon="4.97782">
        <ele>152.99</ele>
        <time>2020-07-28T13:56:01Z</time>
      </trkpt>
      <trkpt lat="49.66337" lon="4.97804">
        <ele>153.95</ele>
        <time>2020-07-28T13:56:19Z</time>
      </trkpt>
      <trkpt lat="49.66325" lon="4.97825">
        <ele>154.43</ele>
        <time>2020-07-28T13:56:36Z</time>
      </trkpt>
      <trkpt lat="49.66315" lon="4.97846">
        <ele>153.47</ele>
        <time>2020-07-28T13:56:53Z</time>
      </trkpt>
      <trkpt lat="49.66302" lon="4.9787">
        <ele>153.47</ele>
        <time>2020-07-28T13:57:11Z</time>
      </trkpt>
      <trkpt lat="49.66289" lon="4.97893">
        <ele>153.95</ele>
        <time>2020-07-28T13:57:30Z</time>
      </trkpt>
      <trkpt lat="49.66275" lon="4.97922">
        <ele>156.83</ele>
        <time>2020-07-28T13:57:50Z</time>
      </trkpt>
      <trkpt lat="49.66262" lon="4.97948">
        <ele>156.83</ele>
        <time>2020-07-28T13:58:10Z</time>
      </trkpt>
      <trkpt lat="49.66253" lon="4.97965">
        <ele>157.79</ele>
        <time>2020-07-28T13:58:25Z</time>
      </trkpt>
      <trkpt lat="49.66251" lon="4.97967">
        <ele>157.79</ele>
        <time>2020-07-28T13:58:27Z</time>
      </trkpt>
      <trkpt lat="49.66236" lon="4.97999">
        <ele>155.87</ele>
        <time>2020-07-28T13:58:48Z</time>
      </trkpt>
      <trkpt lat="49.66221" lon="4.98026">
        <ele>154.91</ele>
        <time>2020-07-28T13:59:08Z</time>
      </trkpt>
      <trkpt lat="49.66209" lon="4.98046">
        <ele>154.91</ele>
        <time>2020-07-28T13:59:26Z</time>
      </trkpt>
      <trkpt lat="49.66197" lon="4.98073">
        <ele>153.95</ele>
        <time>2020-07-28T13:59:46Z</time>
      </trkpt>
      <trkpt lat="49.66182" lon="4.98097">
        <ele>153.95</ele>
        <time>2020-07-28T14:00:03Z</time>
      </trkpt>
      <trkpt lat="49.66177" lon="4.9811">
        <ele>152.99</ele>
        <time>2020-07-28T14:00:13Z</time>
      </trkpt>
      <trkpt lat="49.66164" lon="4.98133">
        <ele>153.47</ele>
        <time>2020-07-28T14:00:31Z</time>
      </trkpt>
      <trkpt lat="49.66154" lon="4.98154">
        <ele>152.99</ele>
        <time>2020-07-28T14:00:48Z</time>
      </trkpt>
      <trkpt lat="49.66142" lon="4.98179">
        <ele>153.95</ele>
        <time>2020-07-28T14:01:06Z</time>
      </trkpt>
      <trkpt lat="49.66129" lon="4.98203">
        <ele>154.91</ele>
        <time>2020-07-28T14:01:24Z</time>
      </trkpt>
      <trkpt lat="49.66115" lon="4.98229">
        <ele>155.39</ele>
        <time>2020-07-28T14:01:43Z</time>
      </trkpt>
      <trkpt lat="49.66108" lon="4.98247">
        <ele>155.39</ele>
        <time>2020-07-28T14:01:59Z</time>
      </trkpt>
      <trkpt lat="49.66089" lon="4.9828">
        <ele>154.91</ele>
        <time>2020-07-28T14:02:21Z</time>
      </trkpt>
      <trkpt lat="49.66078" lon="4.98303">
        <ele>155.39</ele>
        <time>2020-07-28T14:02:39Z</time>
      </trkpt>
      <trkpt lat="49.66064" lon="4.98331">
        <ele>154.91</ele>
        <time>2020-07-28T14:02:59Z</time>
      </trkpt>
      <trkpt lat="49.66062" lon="4.98335">
        <ele>154.91</ele>
        <time>2020-07-28T14:03:03Z</time>
      </trkpt>
      <trkpt lat="49.66046" lon="4.98366">
        <ele>153.47</ele>
        <time>2020-07-28T14:03:24Z</time>
      </trkpt>
      <trkpt lat="49.66042" lon="4.98373">
        <ele>153.95</ele>
        <time>2020-07-28T14:03:31Z</time>
      </trkpt>
      <trkpt lat="49.66025" lon="4.98404">
        <ele>152.51</ele>
        <time>2020-07-28T14:03:52Z</time>
      </trkpt>
      <trkpt lat="49.66011" lon="4.98428">
        <ele>152.03</ele>
        <time>2020-07-28T14:04:11Z</time>
      </trkpt>
      <trkpt lat="49.66001" lon="4.98447">
        <ele>152.51</ele>
        <time>2020-07-28T14:04:27Z</time>
      </trkpt>
      <trkpt lat="49.65989" lon="4.98467">
        <ele>153.95</ele>
        <time>2020-07-28T14:04:43Z</time>
      </trkpt>
      <trkpt lat="49.65978" lon="4.98484">
        <ele>155.87</ele>
        <time>2020-07-28T14:04:57Z</time>
      </trkpt>
      <trkpt lat="49.6597" lon="4.98499">
        <ele>157.31</ele>
        <time>2020-07-28T14:05:10Z</time>
      </trkpt>
      <trkpt lat="49.65969" lon="4.98499">
        <ele>157.31</ele>
        <time>2020-07-28T14:05:25Z</time>
      </trkpt>
      <trkpt lat="49.65962" lon="4.98516">
        <ele>158.27</ele>
        <time>2020-07-28T14:05:40Z</time>
      </trkpt>
      <trkpt lat="49.65955" lon="4.98528">
        <ele>158.27</ele>
        <time>2020-07-28T14:06:07Z</time>
      </trkpt>
      <trkpt lat="49.65942" lon="4.98553">
        <ele>158.27</ele>
        <time>2020-07-28T14:06:25Z</time>
      </trkpt>
      <trkpt lat="49.65935" lon="4.98577">
        <ele>157.79</ele>
        <time>2020-07-28T14:06:41Z</time>
      </trkpt>
      <trkpt lat="49.65924" lon="4.98596">
        <ele>155.87</ele>
        <time>2020-07-28T14:06:58Z</time>
      </trkpt>
      <trkpt lat="49.65909" lon="4.98624">
        <ele>152.03</ele>
        <time>2020-07-28T14:07:18Z</time>
      </trkpt>
      <trkpt lat="49.65901" lon="4.98639">
        <ele>151.06</ele>
        <time>2020-07-28T14:07:33Z</time>
      </trkpt>
      <trkpt lat="49.65885" lon="4.98667">
        <ele>149.62</ele>
        <time>2020-07-28T14:07:51Z</time>
      </trkpt>
      <trkpt lat="49.65873" lon="4.98692">
        <ele>149.62</ele>
        <time>2020-07-28T14:08:09Z</time>
      </trkpt>
      <trkpt lat="49.6586" lon="4.98718">
        <ele>147.22</ele>
        <time>2020-07-28T14:08:29Z</time>
      </trkpt>
      <trkpt lat="49.65848" lon="4.98742">
        <ele>146.26</ele>
        <time>2020-07-28T14:08:46Z</time>
      </trkpt>
      <trkpt lat="49.65839" lon="4.9876">
        <ele>145.78</ele>
        <time>2020-07-28T14:08:59Z</time>
      </trkpt>
      <trkpt lat="49.65836" lon="4.98767">
        <ele>146.26</ele>
        <time>2020-07-28T14:09:03Z</time>
      </trkpt>
      <trkpt lat="49.65822" lon="4.98792">
        <ele>146.74</ele>
        <time>2020-07-28T14:09:23Z</time>
      </trkpt>
      <trkpt lat="49.65808" lon="4.98818">
        <ele>146.74</ele>
        <time>2020-07-28T14:09:44Z</time>
      </trkpt>
      <trkpt lat="49.65797" lon="4.9884">
        <ele>146.74</ele>
        <time>2020-07-28T14:10:01Z</time>
      </trkpt>
      <trkpt lat="49.6578" lon="4.9887">
        <ele>146.74</ele>
        <time>2020-07-28T14:10:22Z</time>
      </trkpt>
      <trkpt lat="49.65765" lon="4.98899">
        <ele>148.66</ele>
        <time>2020-07-28T14:10:44Z</time>
      </trkpt>
      <trkpt lat="49.65755" lon="4.9892">
        <ele>148.66</ele>
        <time>2020-07-28T14:11:01Z</time>
      </trkpt>
      <trkpt lat="49.65745" lon="4.98943">
        <ele>149.14</ele>
        <time>2020-07-28T14:11:18Z</time>
      </trkpt>
      <trkpt lat="49.65743" lon="4.98946">
        <ele>148.66</ele>
        <time>2020-07-28T14:11:21Z</time>
      </trkpt>
      <trkpt lat="49.65726" lon="4.98973">
        <ele>150.1</ele>
        <time>2020-07-28T14:11:40Z</time>
      </trkpt>
      <trkpt lat="49.65715" lon="4.98992">
        <ele>150.58</ele>
        <time>2020-07-28T14:11:58Z</time>
      </trkpt>
      <trkpt lat="49.65702" lon="4.99013">
        <ele>151.06</ele>
        <time>2020-07-28T14:12:17Z</time>
      </trkpt>
      <trkpt lat="49.65688" lon="4.9904">
        <ele>152.03</ele>
        <time>2020-07-28T14:12:35Z</time>
      </trkpt>
      <trkpt lat="49.65672" lon="4.99062">
        <ele>152.51</ele>
        <time>2020-07-28T14:12:55Z</time>
      </trkpt>
      <trkpt lat="49.6566" lon="4.99083">
        <ele>152.51</ele>
        <time>2020-07-28T14:13:12Z</time>
      </trkpt>
      <trkpt lat="49.65647" lon="4.99102">
        <ele>152.51</ele>
        <time>2020-07-28T14:13:30Z</time>
      </trkpt>
      <trkpt lat="49.65633" lon="4.99127">
        <ele>152.99</ele>
        <time>2020-07-28T14:13:49Z</time>
      </trkpt>
      <trkpt lat="49.65617" lon="4.99151">
        <ele>153.47</ele>
        <time>2020-07-28T14:14:09Z</time>
      </trkpt>
      <trkpt lat="49.65603" lon="4.99175">
        <ele>153.47</ele>
        <time>2020-07-28T14:14:29Z</time>
      </trkpt>
      <trkpt lat="49.65593" lon="4.99195">
        <ele>154.43</ele>
        <time>2020-07-28T14:14:46Z</time>
      </trkpt>
      <trkpt lat="49.65589" lon="4.99202">
        <ele>153.95</ele>
        <time>2020-07-28T14:14:54Z</time>
      </trkpt>
      <trkpt lat="49.65573" lon="4.99228">
        <ele>153.95</ele>
        <time>2020-07-28T14:15:15Z</time>
      </trkpt>
      <trkpt lat="49.65566" lon="4.99237">
        <ele>153.95</ele>
        <time>2020-07-28T14:15:24Z</time>
      </trkpt>
      <trkpt lat="49.65554" lon="4.99231">
        <ele>154.43</ele>
        <time>2020-07-28T14:15:40Z</time>
      </trkpt>
      <trkpt lat="49.65539" lon="4.99222">
        <ele>153.95</ele>
        <time>2020-07-28T14:15:58Z</time>
      </trkpt>
      <trkpt lat="49.65524" lon="4.99211">
        <ele>153.47</ele>
        <time>2020-07-28T14:16:13Z</time>
      </trkpt>
      <trkpt lat="49.65508" lon="4.99202">
        <ele>157.31</ele>
        <time>2020-07-28T14:16:29Z</time>
      </trkpt>
      <trkpt lat="49.65507" lon="4.99202">
        <ele>157.79</ele>
        <time>2020-07-28T14:16:30Z</time>
      </trkpt>
      <trkpt lat="49.65495" lon="4.99203">
        <ele>160.68</ele>
        <time>2020-07-28T14:16:45Z</time>
      </trkpt>
      <trkpt lat="49.65486" lon="4.99231">
        <ele>157.79</ele>
        <time>2020-07-28T14:17:04Z</time>
      </trkpt>
      <trkpt lat="49.65477" lon="4.99257">
        <ele>156.83</ele>
        <time>2020-07-28T14:17:21Z</time>
      </trkpt>
      <trkpt lat="49.65466" lon="4.99281">
        <ele>156.35</ele>
        <time>2020-07-28T14:17:37Z</time>
      </trkpt>
      <trkpt lat="49.65457" lon="4.99282">
        <ele>155.87</ele>
        <time>2020-07-28T14:17:48Z</time>
      </trkpt>
      <trkpt lat="49.65442" lon="4.99267">
        <ele>155.39</ele>
        <time>2020-07-28T14:18:05Z</time>
      </trkpt>
      <trkpt lat="49.65427" lon="4.99246">
        <ele>154.43</ele>
        <time>2020-07-28T14:18:24Z</time>
      </trkpt>
      <trkpt lat="49.65417" lon="4.9923">
        <ele>155.39</ele>
        <time>2020-07-28T14:18:40Z</time>
      </trkpt>
      <trkpt lat="49.65411" lon="4.99223">
        <ele>155.39</ele>
        <time>2020-07-28T14:18:46Z</time>
      </trkpt>
      <trkpt lat="49.65397" lon="4.99207">
        <ele>156.83</ele>
        <time>2020-07-28T14:19:02Z</time>
      </trkpt>
      <trkpt lat="49.65388" lon="4.99192">
        <ele>160.2</ele>
        <time>2020-07-28T14:19:15Z</time>
      </trkpt>
      <trkpt lat="49.65379" lon="4.99199">
        <ele>161.16</ele>
        <time>2020-07-28T14:19:30Z</time>
      </trkpt>
      <trkpt lat="49.65379" lon="4.99198">
        <ele>160.68</ele>
        <time>2020-07-28T14:19:33Z</time>
      </trkpt>
      <trkpt lat="49.65374" lon="4.99194">
        <ele>160.2</ele>
        <time>2020-07-28T14:19:38Z</time>
      </trkpt>
      <trkpt lat="49.65377" lon="4.99184">
        <ele>162.12</ele>
        <time>2020-07-28T14:19:45Z</time>
      </trkpt>
      <trkpt lat="49.6537" lon="4.99163">
        <ele>162.6</ele>
        <time>2020-07-28T14:19:58Z</time>
      </trkpt>
      <trkpt lat="49.65356" lon="4.99138">
        <ele>159.24</ele>
        <time>2020-07-28T14:20:18Z</time>
      </trkpt>
      <trkpt lat="49.65347" lon="4.99127">
        <ele>154.43</ele>
        <time>2020-07-28T14:20:36Z</time>
      </trkpt>
      <trkpt lat="49.65345" lon="4.99126">
        <ele>153.95</ele>
        <time>2020-07-28T14:20:56Z</time>
      </trkpt>
      <trkpt lat="49.65345" lon="4.99125">
        <ele>152.99</ele>
        <time>2020-07-28T14:21:18Z</time>
      </trkpt>
      <trkpt lat="49.65345" lon="4.99125">
        <ele>152.03</ele>
        <time>2020-07-28T14:21:39Z</time>
      </trkpt>
      <trkpt lat="49.65344" lon="4.99126">
        <ele>152.51</ele>
        <time>2020-07-28T14:21:58Z</time>
      </trkpt>
      <trkpt lat="49.65344" lon="4.99126">
        <ele>152.51</ele>
        <time>2020-07-28T14:22:22Z</time>
      </trkpt>
      <trkpt lat="49.65344" lon="4.99127">
        <ele>153.47</ele>
        <time>2020-07-28T14:22:41Z</time>
      </trkpt>
      <trkpt lat="49.65344" lon="4.99128">
        <ele>153.47</ele>
        <time>2020-07-28T14:23:04Z</time>
      </trkpt>
      <trkpt lat="49.65344" lon="4.99127">
        <ele>153.95</ele>
        <time>2020-07-28T14:23:33Z</time>
      </trkpt>
      <trkpt lat="49.65345" lon="4.99128">
        <ele>153.95</ele>
        <time>2020-07-28T14:23:57Z</time>
      </trkpt>
      <trkpt lat="49.65344" lon="4.99128">
        <ele>152.99</ele>
        <time>2020-07-28T14:24:17Z</time>
      </trkpt>
      <trkpt lat="49.65344" lon="4.99128">
        <ele>153.47</ele>
        <time>2020-07-28T14:24:35Z</time>
      </trkpt>
      <trkpt lat="49.65344" lon="4.99128">
        <ele>153.47</ele>
        <time>2020-07-28T14:24:50Z</time>
      </trkpt>
      <trkpt lat="49.65344" lon="4.99129">
        <ele>153.95</ele>
        <time>2020-07-28T14:25:10Z</time>
      </trkpt>
      <trkpt lat="49.65345" lon="4.99129">
        <ele>154.43</ele>
        <time>2020-07-28T14:25:32Z</time>
      </trkpt>
      <trkpt lat="49.65344" lon="4.99128">
        <ele>154.43</ele>
        <time>2020-07-28T14:25:51Z</time>
      </trkpt>
      <trkpt lat="49.65344" lon="4.99128">
        <ele>153.95</ele>
        <time>2020-07-28T14:26:14Z</time>
      </trkpt>
      <trkpt lat="49.65341" lon="4.99112">
        <ele>153.95</ele>
        <time>2020-07-28T14:26:31Z</time>
      </trkpt>
      <trkpt lat="49.6533" lon="4.99079">
        <ele>152.03</ele>
        <time>2020-07-28T14:26:46Z</time>
      </trkpt>
      <trkpt lat="49.65321" lon="4.99056">
        <ele>151.54</ele>
        <time>2020-07-28T14:27:01Z</time>
      </trkpt>
      <trkpt lat="49.65316" lon="4.99045">
        <ele>152.99</ele>
        <time>2020-07-28T14:27:11Z</time>
      </trkpt>
      <trkpt lat="49.65311" lon="4.99038">
        <ele>152.99</ele>
        <time>2020-07-28T14:27:16Z</time>
      </trkpt>
      <trkpt lat="49.65297" lon="4.99024">
        <ele>152.51</ele>
        <time>2020-07-28T14:27:31Z</time>
      </trkpt>
      <trkpt lat="49.6528" lon="4.99006">
        <ele>152.03</ele>
        <time>2020-07-28T14:27:48Z</time>
      </trkpt>
      <trkpt lat="49.65278" lon="4.99005">
        <ele>152.03</ele>
        <time>2020-07-28T14:27:51Z</time>
      </trkpt>
      <trkpt lat="49.65258" lon="4.98988">
        <ele>154.91</ele>
        <time>2020-07-28T14:28:11Z</time>
      </trkpt>
      <trkpt lat="49.65241" lon="4.98973">
        <ele>156.83</ele>
        <time>2020-07-28T14:28:27Z</time>
      </trkpt>
      <trkpt lat="49.65225" lon="4.98959">
        <ele>157.79</ele>
        <time>2020-07-28T14:28:46Z</time>
      </trkpt>
      <trkpt lat="49.6521" lon="4.98943">
        <ele>159.24</ele>
        <time>2020-07-28T14:29:03Z</time>
      </trkpt>
      <trkpt lat="49.65194" lon="4.98926">
        <ele>161.16</ele>
        <time>2020-07-28T14:29:20Z</time>
      </trkpt>
      <trkpt lat="49.65178" lon="4.9891">
        <ele>162.12</ele>
        <time>2020-07-28T14:29:38Z</time>
      </trkpt>
      <trkpt lat="49.65162" lon="4.98895">
        <ele>162.6</ele>
        <time>2020-07-28T14:29:55Z</time>
      </trkpt>
      <trkpt lat="49.65146" lon="4.98881">
        <ele>161.16</ele>
        <time>2020-07-28T14:30:12Z</time>
      </trkpt>
      <trkpt lat="49.65126" lon="4.98863">
        <ele>160.2</ele>
        <time>2020-07-28T14:30:32Z</time>
      </trkpt>
      <trkpt lat="49.65107" lon="4.98844">
        <ele>158.75</ele>
        <time>2020-07-28T14:30:52Z</time>
      </trkpt>
      <trkpt lat="49.65087" lon="4.98827">
        <ele>157.31</ele>
        <time>2020-07-28T14:31:12Z</time>
      </trkpt>
      <trkpt lat="49.65069" lon="4.98809">
        <ele>156.35</ele>
        <time>2020-07-28T14:31:32Z</time>
      </trkpt>
      <trkpt lat="49.6505" lon="4.98792">
        <ele>156.35</ele>
        <time>2020-07-28T14:31:51Z</time>
      </trkpt>
      <trkpt lat="49.65033" lon="4.98776">
        <ele>157.31</ele>
        <time>2020-07-28T14:32:10Z</time>
      </trkpt>
      <trkpt lat="49.65014" lon="4.98757">
        <ele>156.83</ele>
        <time>2020-07-28T14:32:30Z</time>
      </trkpt>
      <trkpt lat="49.64998" lon="4.98741">
        <ele>157.79</ele>
        <time>2020-07-28T14:32:49Z</time>
      </trkpt>
      <trkpt lat="49.64982" lon="4.98727">
        <ele>159.72</ele>
        <time>2020-07-28T14:33:06Z</time>
      </trkpt>
      <trkpt lat="49.64963" lon="4.98708">
        <ele>162.12</ele>
        <time>2020-07-28T14:33:27Z</time>
      </trkpt>
      <trkpt lat="49.64951" lon="4.98696">
        <ele>165</ele>
        <time>2020-07-28T14:33:41Z</time>
      </trkpt>
      <trkpt lat="49.64934" lon="4.98683">
        <ele>165</ele>
        <time>2020-07-28T14:33:59Z</time>
      </trkpt>
      <trkpt lat="49.6493" lon="4.98684">
        <ele>164.04</ele>
        <time>2020-07-28T14:34:11Z</time>
      </trkpt>
      <trkpt lat="49.64929" lon="4.98682">
        <ele>164.04</ele>
        <time>2020-07-28T14:34:29Z</time>
      </trkpt>
      <trkpt lat="49.64918" lon="4.98669">
        <ele>163.56</ele>
        <time>2020-07-28T14:34:43Z</time>
      </trkpt>
      <trkpt lat="49.64908" lon="4.98656">
        <ele>163.56</ele>
        <time>2020-07-28T14:34:55Z</time>
      </trkpt>
      <trkpt lat="49.64906" lon="4.98654">
        <ele>163.08</ele>
        <time>2020-07-28T14:34:57Z</time>
      </trkpt>
      <trkpt lat="49.64896" lon="4.98638">
        <ele>163.08</ele>
        <time>2020-07-28T14:35:14Z</time>
      </trkpt>
      <trkpt lat="49.64884" lon="4.98615">
        <ele>160.2</ele>
        <time>2020-07-28T14:35:30Z</time>
      </trkpt>
      <trkpt lat="49.64884" lon="4.98614">
        <ele>159.72</ele>
        <time>2020-07-28T14:35:32Z</time>
      </trkpt>
      <trkpt lat="49.64882" lon="4.98602">
        <ele>159.72</ele>
        <time>2020-07-28T14:35:38Z</time>
      </trkpt>
      <trkpt lat="49.6488" lon="4.98596">
        <ele>160.2</ele>
        <time>2020-07-28T14:35:44Z</time>
      </trkpt>
      <trkpt lat="49.64881" lon="4.98588">
        <ele>160.2</ele>
        <time>2020-07-28T14:35:48Z</time>
      </trkpt>
      <trkpt lat="49.64881" lon="4.98564">
        <ele>161.64</ele>
        <time>2020-07-28T14:36:02Z</time>
      </trkpt>
      <trkpt lat="49.64883" lon="4.98546">
        <ele>162.6</ele>
        <time>2020-07-28T14:36:14Z</time>
      </trkpt>
      <trkpt lat="49.64883" lon="4.98545">
        <ele>162.6</ele>
        <time>2020-07-28T14:36:15Z</time>
      </trkpt>
      <trkpt lat="49.64887" lon="4.98522">
        <ele>163.56</ele>
        <time>2020-07-28T14:36:29Z</time>
      </trkpt>
      <trkpt lat="49.64887" lon="4.98522">
        <ele>163.56</ele>
        <time>2020-07-28T14:36:30Z</time>
      </trkpt>
      <trkpt lat="49.64891" lon="4.98502">
        <ele>164.52</ele>
        <time>2020-07-28T14:36:45Z</time>
      </trkpt>
      <trkpt lat="49.64893" lon="4.98482">
        <ele>164.04</ele>
        <time>2020-07-28T14:36:57Z</time>
      </trkpt>
      <trkpt lat="49.64897" lon="4.98466">
        <ele>162.12</ele>
        <time>2020-07-28T14:37:08Z</time>
      </trkpt>
      <trkpt lat="49.64902" lon="4.98449">
        <ele>162.12</ele>
        <time>2020-07-28T14:37:21Z</time>
      </trkpt>
      <trkpt lat="49.64908" lon="4.98435">
        <ele>164.52</ele>
        <time>2020-07-28T14:37:33Z</time>
      </trkpt>
      <trkpt lat="49.64913" lon="4.98423">
        <ele>165.96</ele>
        <time>2020-07-28T14:37:44Z</time>
      </trkpt>
      <trkpt lat="49.64921" lon="4.98408">
        <ele>168.37</ele>
        <time>2020-07-28T14:37:55Z</time>
      </trkpt>
      <trkpt lat="49.64924" lon="4.98402">
        <ele>169.33</ele>
        <time>2020-07-28T14:38:00Z</time>
      </trkpt>
      <trkpt lat="49.64929" lon="4.98385">
        <ele>171.25</ele>
        <time>2020-07-28T14:38:12Z</time>
      </trkpt>
      <trkpt lat="49.64934" lon="4.98368">
        <ele>172.21</ele>
        <time>2020-07-28T14:38:24Z</time>
      </trkpt>
      <trkpt lat="49.64937" lon="4.98356">
        <ele>173.17</ele>
        <time>2020-07-28T14:38:32Z</time>
      </trkpt>
      <trkpt lat="49.64939" lon="4.98344">
        <ele>174.14</ele>
        <time>2020-07-28T14:38:39Z</time>
      </trkpt>
      <trkpt lat="49.64944" lon="4.98324">
        <ele>176.06</ele>
        <time>2020-07-28T14:38:52Z</time>
      </trkpt>
      <trkpt lat="49.64949" lon="4.98305">
        <ele>177.98</ele>
        <time>2020-07-28T14:39:05Z</time>
      </trkpt>
      <trkpt lat="49.64953" lon="4.98287">
        <ele>179.9</ele>
        <time>2020-07-28T14:39:17Z</time>
      </trkpt>
      <trkpt lat="49.64958" lon="4.98268">
        <ele>179.9</ele>
        <time>2020-07-28T14:39:29Z</time>
      </trkpt>
      <trkpt lat="49.64961" lon="4.9825">
        <ele>179.42</ele>
        <time>2020-07-28T14:39:41Z</time>
      </trkpt>
      <trkpt lat="49.64962" lon="4.98228">
        <ele>179.9</ele>
        <time>2020-07-28T14:39:53Z</time>
      </trkpt>
      <trkpt lat="49.6496" lon="4.98212">
        <ele>181.35</ele>
        <time>2020-07-28T14:40:04Z</time>
      </trkpt>
      <trkpt lat="49.64958" lon="4.98191">
        <ele>182.31</ele>
        <time>2020-07-28T14:40:17Z</time>
      </trkpt>
      <trkpt lat="49.64958" lon="4.98172">
        <ele>183.27</ele>
        <time>2020-07-28T14:40:29Z</time>
      </trkpt>
      <trkpt lat="49.64957" lon="4.98152">
        <ele>183.75</ele>
        <time>2020-07-28T14:40:42Z</time>
      </trkpt>
      <trkpt lat="49.64954" lon="4.98133">
        <ele>185.19</ele>
        <time>2020-07-28T14:40:54Z</time>
      </trkpt>
      <trkpt lat="49.64952" lon="4.98114">
        <ele>186.15</ele>
        <time>2020-07-28T14:41:07Z</time>
      </trkpt>
      <trkpt lat="49.64949" lon="4.98097">
        <ele>187.59</ele>
        <time>2020-07-28T14:41:19Z</time>
      </trkpt>
      <trkpt lat="49.64945" lon="4.98077">
        <ele>189.04</ele>
        <time>2020-07-28T14:41:31Z</time>
      </trkpt>
      <trkpt lat="49.64942" lon="4.98063">
        <ele>190</ele>
        <time>2020-07-28T14:41:42Z</time>
      </trkpt>
      <trkpt lat="49.64937" lon="4.98044">
        <ele>190.48</ele>
        <time>2020-07-28T14:41:54Z</time>
      </trkpt>
      <trkpt lat="49.64932" lon="4.98029">
        <ele>191.44</ele>
        <time>2020-07-28T14:42:05Z</time>
      </trkpt>
      <trkpt lat="49.64927" lon="4.98011">
        <ele>192.4</ele>
        <time>2020-07-28T14:42:17Z</time>
      </trkpt>
      <trkpt lat="49.64923" lon="4.97994">
        <ele>194.8</ele>
        <time>2020-07-28T14:42:28Z</time>
      </trkpt>
      <trkpt lat="49.64917" lon="4.97979">
        <ele>196.25</ele>
        <time>2020-07-28T14:42:40Z</time>
      </trkpt>
      <trkpt lat="49.64912" lon="4.97959">
        <ele>196.73</ele>
        <time>2020-07-28T14:42:52Z</time>
      </trkpt>
      <trkpt lat="49.64909" lon="4.97943">
        <ele>197.21</ele>
        <time>2020-07-28T14:43:04Z</time>
      </trkpt>
      <trkpt lat="49.64908" lon="4.9794">
        <ele>197.69</ele>
        <time>2020-07-28T14:43:06Z</time>
      </trkpt>
      <trkpt lat="49.64904" lon="4.97919">
        <ele>198.65</ele>
        <time>2020-07-28T14:43:19Z</time>
      </trkpt>
      <trkpt lat="49.64902" lon="4.97904">
        <ele>199.61</ele>
        <time>2020-07-28T14:43:30Z</time>
      </trkpt>
      <trkpt lat="49.649" lon="4.97881">
        <ele>198.65</ele>
        <time>2020-07-28T14:43:42Z</time>
      </trkpt>
      <trkpt lat="49.649" lon="4.97864">
        <ele>198.65</ele>
        <time>2020-07-28T14:43:53Z</time>
      </trkpt>
      <trkpt lat="49.649" lon="4.97843">
        <ele>199.61</ele>
        <time>2020-07-28T14:44:06Z</time>
      </trkpt>
      <trkpt lat="49.649" lon="4.97824">
        <ele>201.53</ele>
        <time>2020-07-28T14:44:18Z</time>
      </trkpt>
      <trkpt lat="49.649" lon="4.97821">
        <ele>201.05</ele>
        <time>2020-07-28T14:44:21Z</time>
      </trkpt>
      <trkpt lat="49.649" lon="4.97813">
        <ele>201.53</ele>
        <time>2020-07-28T14:44:25Z</time>
      </trkpt>
      <trkpt lat="49.649" lon="4.97792">
        <ele>202.49</ele>
        <time>2020-07-28T14:44:38Z</time>
      </trkpt>
      <trkpt lat="49.649" lon="4.97784">
        <ele>203.94</ele>
        <time>2020-07-28T14:44:48Z</time>
      </trkpt>
      <trkpt lat="49.64899" lon="4.9777">
        <ele>204.42</ele>
        <time>2020-07-28T14:44:59Z</time>
      </trkpt>
      <trkpt lat="49.649" lon="4.97751">
        <ele>206.34</ele>
        <time>2020-07-28T14:45:12Z</time>
      </trkpt>
      <trkpt lat="49.64903" lon="4.9773">
        <ele>207.78</ele>
        <time>2020-07-28T14:45:24Z</time>
      </trkpt>
      <trkpt lat="49.64905" lon="4.97714">
        <ele>208.74</ele>
        <time>2020-07-28T14:45:36Z</time>
      </trkpt>
      <trkpt lat="49.64911" lon="4.97695">
        <ele>209.7</ele>
        <time>2020-07-28T14:45:48Z</time>
      </trkpt>
      <trkpt lat="49.64916" lon="4.97681">
        <ele>211.63</ele>
        <time>2020-07-28T14:46:00Z</time>
      </trkpt>
      <trkpt lat="49.64922" lon="4.97667">
        <ele>212.59</ele>
        <time>2020-07-28T14:46:11Z</time>
      </trkpt>
      <trkpt lat="49.64929" lon="4.97649">
        <ele>214.03</ele>
        <time>2020-07-28T14:46:24Z</time>
      </trkpt>
      <trkpt lat="49.64933" lon="4.97636">
        <ele>214.99</ele>
        <time>2020-07-28T14:46:34Z</time>
      </trkpt>
      <trkpt lat="49.6494" lon="4.97616">
        <ele>217.4</ele>
        <time>2020-07-28T14:46:47Z</time>
      </trkpt>
      <trkpt lat="49.64944" lon="4.97602">
        <ele>219.32</ele>
        <time>2020-07-28T14:46:59Z</time>
      </trkpt>
      <trkpt lat="49.64949" lon="4.97585">
        <ele>220.28</ele>
        <time>2020-07-28T14:47:10Z</time>
      </trkpt>
      <trkpt lat="49.6495" lon="4.97562">
        <ele>219.32</ele>
        <time>2020-07-28T14:47:23Z</time>
      </trkpt>
      <trkpt lat="49.64949" lon="4.97556">
        <ele>220.28</ele>
        <time>2020-07-28T14:47:36Z</time>
      </trkpt>
      <trkpt lat="49.64948" lon="4.97545">
        <ele>220.28</ele>
        <time>2020-07-28T14:47:49Z</time>
      </trkpt>
      <trkpt lat="49.64948" lon="4.97544">
        <ele>220.28</ele>
        <time>2020-07-28T14:47:50Z</time>
      </trkpt>
      <trkpt lat="49.64948" lon="4.97537">
        <ele>220.76</ele>
        <time>2020-07-28T14:47:55Z</time>
      </trkpt>
      <trkpt lat="49.64946" lon="4.9752">
        <ele>221.72</ele>
        <time>2020-07-28T14:48:07Z</time>
      </trkpt>
      <trkpt lat="49.64941" lon="4.97504">
        <ele>223.16</ele>
        <time>2020-07-28T14:48:18Z</time>
      </trkpt>
      <trkpt lat="49.64937" lon="4.97488">
        <ele>224.61</ele>
        <time>2020-07-28T14:48:30Z</time>
      </trkpt>
      <trkpt lat="49.6493" lon="4.97474">
        <ele>226.53</ele>
        <time>2020-07-28T14:48:42Z</time>
      </trkpt>
      <trkpt lat="49.64925" lon="4.97466">
        <ele>227.01</ele>
        <time>2020-07-28T14:48:50Z</time>
      </trkpt>
      <trkpt lat="49.6492" lon="4.97461">
        <ele>226.53</ele>
        <time>2020-07-28T14:48:54Z</time>
      </trkpt>
      <trkpt lat="49.64912" lon="4.97446">
        <ele>227.01</ele>
        <time>2020-07-28T14:49:07Z</time>
      </trkpt>
      <trkpt lat="49.64903" lon="4.97429">
        <ele>228.45</ele>
        <time>2020-07-28T14:49:20Z</time>
      </trkpt>
      <trkpt lat="49.64895" lon="4.97417">
        <ele>229.41</ele>
        <time>2020-07-28T14:49:33Z</time>
      </trkpt>
      <trkpt lat="49.64884" lon="4.97402">
        <ele>230.37</ele>
        <time>2020-07-28T14:49:46Z</time>
      </trkpt>
      <trkpt lat="49.64872" lon="4.9739">
        <ele>231.81</ele>
        <time>2020-07-28T14:49:59Z</time>
      </trkpt>
      <trkpt lat="49.64863" lon="4.97381">
        <ele>232.3</ele>
        <time>2020-07-28T14:50:12Z</time>
      </trkpt>
      <trkpt lat="49.6485" lon="4.97369">
        <ele>232.3</ele>
        <time>2020-07-28T14:50:25Z</time>
      </trkpt>
      <trkpt lat="49.6484" lon="4.9736">
        <ele>233.26</ele>
        <time>2020-07-28T14:50:37Z</time>
      </trkpt>
      <trkpt lat="49.64828" lon="4.97348">
        <ele>235.18</ele>
        <time>2020-07-28T14:50:50Z</time>
      </trkpt>
      <trkpt lat="49.64818" lon="4.97339">
        <ele>235.66</ele>
        <time>2020-07-28T14:51:02Z</time>
      </trkpt>
      <trkpt lat="49.64809" lon="4.9733">
        <ele>235.66</ele>
        <time>2020-07-28T14:51:13Z</time>
      </trkpt>
      <trkpt lat="49.64797" lon="4.97317">
        <ele>236.14</ele>
        <time>2020-07-28T14:51:25Z</time>
      </trkpt>
      <trkpt lat="49.64787" lon="4.97307">
        <ele>236.14</ele>
        <time>2020-07-28T14:51:37Z</time>
      </trkpt>
      <trkpt lat="49.64777" lon="4.97294">
        <ele>237.1</ele>
        <time>2020-07-28T14:51:50Z</time>
      </trkpt>
      <trkpt lat="49.64767" lon="4.97281">
        <ele>239.02</ele>
        <time>2020-07-28T14:52:02Z</time>
      </trkpt>
      <trkpt lat="49.64756" lon="4.97266">
        <ele>239.99</ele>
        <time>2020-07-28T14:52:16Z</time>
      </trkpt>
      <trkpt lat="49.64745" lon="4.97253">
        <ele>241.43</ele>
        <time>2020-07-28T14:52:28Z</time>
      </trkpt>
      <trkpt lat="49.64736" lon="4.9724">
        <ele>241.91</ele>
        <time>2020-07-28T14:52:41Z</time>
      </trkpt>
      <trkpt lat="49.64733" lon="4.97235">
        <ele>242.39</ele>
        <time>2020-07-28T14:52:53Z</time>
      </trkpt>
      <trkpt lat="49.6473" lon="4.97232">
        <ele>241.91</ele>
        <time>2020-07-28T14:53:01Z</time>
      </trkpt>
      <trkpt lat="49.64721" lon="4.97217">
        <ele>243.83</ele>
        <time>2020-07-28T14:53:15Z</time>
      </trkpt>
      <trkpt lat="49.64712" lon="4.97207">
        <ele>243.35</ele>
        <time>2020-07-28T14:53:27Z</time>
      </trkpt>
      <trkpt lat="49.64701" lon="4.97191">
        <ele>242.39</ele>
        <time>2020-07-28T14:53:42Z</time>
      </trkpt>
      <trkpt lat="49.64689" lon="4.97186">
        <ele>240.47</ele>
        <time>2020-07-28T14:53:56Z</time>
      </trkpt>
      <trkpt lat="49.64679" lon="4.97205">
        <ele>238.54</ele>
        <time>2020-07-28T14:54:13Z</time>
      </trkpt>
      <trkpt lat="49.64671" lon="4.97224">
        <ele>237.1</ele>
        <time>2020-07-28T14:54:29Z</time>
      </trkpt>
      <trkpt lat="49.64663" lon="4.97247">
        <ele>236.14</ele>
        <time>2020-07-28T14:54:46Z</time>
      </trkpt>
      <trkpt lat="49.64654" lon="4.9727">
        <ele>234.7</ele>
        <time>2020-07-28T14:55:01Z</time>
      </trkpt>
      <trkpt lat="49.64644" lon="4.97294">
        <ele>232.78</ele>
        <time>2020-07-28T14:55:20Z</time>
      </trkpt>
      <trkpt lat="49.64636" lon="4.97315">
        <ele>231.33</ele>
        <time>2020-07-28T14:55:35Z</time>
      </trkpt>
      <trkpt lat="49.64628" lon="4.97337">
        <ele>229.89</ele>
        <time>2020-07-28T14:55:52Z</time>
      </trkpt>
      <trkpt lat="49.6462" lon="4.97357">
        <ele>227.97</ele>
        <time>2020-07-28T14:56:08Z</time>
      </trkpt>
      <trkpt lat="49.6461" lon="4.97379">
        <ele>226.53</ele>
        <time>2020-07-28T14:56:26Z</time>
      </trkpt>
      <trkpt lat="49.64603" lon="4.97399">
        <ele>224.12</ele>
        <time>2020-07-28T14:56:42Z</time>
      </trkpt>
      <trkpt lat="49.64597" lon="4.97412">
        <ele>223.64</ele>
        <time>2020-07-28T14:56:55Z</time>
      </trkpt>
      <trkpt lat="49.64588" lon="4.97434">
        <ele>221.72</ele>
        <time>2020-07-28T14:57:14Z</time>
      </trkpt>
      <trkpt lat="49.64581" lon="4.97456">
        <ele>217.88</ele>
        <time>2020-07-28T14:57:31Z</time>
      </trkpt>
      <trkpt lat="49.64572" lon="4.97478">
        <ele>216.43</ele>
        <time>2020-07-28T14:57:47Z</time>
      </trkpt>
      <trkpt lat="49.64565" lon="4.97493">
        <ele>214.99</ele>
        <time>2020-07-28T14:58:02Z</time>
      </trkpt>
      <trkpt lat="49.64557" lon="4.97514">
        <ele>212.59</ele>
        <time>2020-07-28T14:58:19Z</time>
      </trkpt>
      <trkpt lat="49.64549" lon="4.97535">
        <ele>212.11</ele>
        <time>2020-07-28T14:58:34Z</time>
      </trkpt>
      <trkpt lat="49.6454" lon="4.97554">
        <ele>210.19</ele>
        <time>2020-07-28T14:58:50Z</time>
      </trkpt>
      <trkpt lat="49.64531" lon="4.97572">
        <ele>208.74</ele>
        <time>2020-07-28T14:59:03Z</time>
      </trkpt>
      <trkpt lat="49.64529" lon="4.9758">
        <ele>208.26</ele>
        <time>2020-07-28T14:59:10Z</time>
      </trkpt>
      <trkpt lat="49.64521" lon="4.97594">
        <ele>206.82</ele>
        <time>2020-07-28T14:59:24Z</time>
      </trkpt>
      <trkpt lat="49.6452" lon="4.97595">
        <ele>206.82</ele>
        <time>2020-07-28T14:59:25Z</time>
      </trkpt>
      <trkpt lat="49.64512" lon="4.97614">
        <ele>206.34</ele>
        <time>2020-07-28T14:59:40Z</time>
      </trkpt>
      <trkpt lat="49.64504" lon="4.97631">
        <ele>203.94</ele>
        <time>2020-07-28T14:59:57Z</time>
      </trkpt>
      <trkpt lat="49.64497" lon="4.9765">
        <ele>202.98</ele>
        <time>2020-07-28T15:00:13Z</time>
      </trkpt>
      <trkpt lat="49.6449" lon="4.97666">
        <ele>201.05</ele>
        <time>2020-07-28T15:00:27Z</time>
      </trkpt>
      <trkpt lat="49.64488" lon="4.97672">
        <ele>200.57</ele>
        <time>2020-07-28T15:00:32Z</time>
      </trkpt>
      <trkpt lat="49.6448" lon="4.97692">
        <ele>199.61</ele>
        <time>2020-07-28T15:00:48Z</time>
      </trkpt>
      <trkpt lat="49.64472" lon="4.97711">
        <ele>198.17</ele>
        <time>2020-07-28T15:01:02Z</time>
      </trkpt>
      <trkpt lat="49.64464" lon="4.97735">
        <ele>194.8</ele>
        <time>2020-07-28T15:01:20Z</time>
      </trkpt>
      <trkpt lat="49.64456" lon="4.97755">
        <ele>193.84</ele>
        <time>2020-07-28T15:01:35Z</time>
      </trkpt>
      <trkpt lat="49.64449" lon="4.97764">
        <ele>193.84</ele>
        <time>2020-07-28T15:01:47Z</time>
      </trkpt>
      <trkpt lat="49.64443" lon="4.97764">
        <ele>194.32</ele>
        <time>2020-07-28T15:01:54Z</time>
      </trkpt>
      <trkpt lat="49.6443" lon="4.97753">
        <ele>195.77</ele>
        <time>2020-07-28T15:02:08Z</time>
      </trkpt>
      <trkpt lat="49.64416" lon="4.97743">
        <ele>196.73</ele>
        <time>2020-07-28T15:02:23Z</time>
      </trkpt>
      <trkpt lat="49.64399" lon="4.97728">
        <ele>197.21</ele>
        <time>2020-07-28T15:02:42Z</time>
      </trkpt>
      <trkpt lat="49.64385" lon="4.97717">
        <ele>197.69</ele>
        <time>2020-07-28T15:02:58Z</time>
      </trkpt>
      <trkpt lat="49.64375" lon="4.9771">
        <ele>197.21</ele>
        <time>2020-07-28T15:03:11Z</time>
      </trkpt>
      <trkpt lat="49.64362" lon="4.97699">
        <ele>195.28</ele>
        <time>2020-07-28T15:03:26Z</time>
      </trkpt>
      <trkpt lat="49.64349" lon="4.97688">
        <ele>196.73</ele>
        <time>2020-07-28T15:03:41Z</time>
      </trkpt>
      <trkpt lat="49.64335" lon="4.97678">
        <ele>197.21</ele>
        <time>2020-07-28T15:03:57Z</time>
      </trkpt>
      <trkpt lat="49.64323" lon="4.97668">
        <ele>195.28</ele>
        <time>2020-07-28T15:04:09Z</time>
      </trkpt>
      <trkpt lat="49.64316" lon="4.97661">
        <ele>194.8</ele>
        <time>2020-07-28T15:04:18Z</time>
      </trkpt>
      <trkpt lat="49.64299" lon="4.97647">
        <ele>195.28</ele>
        <time>2020-07-28T15:04:36Z</time>
      </trkpt>
      <trkpt lat="49.64284" lon="4.97636">
        <ele>193.84</ele>
        <time>2020-07-28T15:04:54Z</time>
      </trkpt>
      <trkpt lat="49.64277" lon="4.97637">
        <ele>192.4</ele>
        <time>2020-07-28T15:05:08Z</time>
      </trkpt>
      <trkpt lat="49.64275" lon="4.97639">
        <ele>191.92</ele>
        <time>2020-07-28T15:05:11Z</time>
      </trkpt>
      <trkpt lat="49.6427" lon="4.97647">
        <ele>191.92</ele>
        <time>2020-07-28T15:05:19Z</time>
      </trkpt>
      <trkpt lat="49.64269" lon="4.97649">
        <ele>191.44</ele>
        <time>2020-07-28T15:05:21Z</time>
      </trkpt>
      <trkpt lat="49.64262" lon="4.97664">
        <ele>190</ele>
        <time>2020-07-28T15:05:39Z</time>
      </trkpt>
      <trkpt lat="49.64254" lon="4.97681">
        <ele>187.59</ele>
        <time>2020-07-28T15:05:55Z</time>
      </trkpt>
      <trkpt lat="49.64249" lon="4.97693">
        <ele>185.19</ele>
        <time>2020-07-28T15:06:07Z</time>
      </trkpt>
      <trkpt lat="49.64245" lon="4.97699">
        <ele>185.19</ele>
        <time>2020-07-28T15:06:12Z</time>
      </trkpt>
      <trkpt lat="49.64237" lon="4.97723">
        <ele>183.75</ele>
        <time>2020-07-28T15:06:29Z</time>
      </trkpt>
      <trkpt lat="49.6423" lon="4.97744">
        <ele>182.31</ele>
        <time>2020-07-28T15:06:46Z</time>
      </trkpt>
      <trkpt lat="49.64223" lon="4.97763">
        <ele>179.9</ele>
        <time>2020-07-28T15:07:01Z</time>
      </trkpt>
      <trkpt lat="49.64217" lon="4.97784">
        <ele>178.46</ele>
        <time>2020-07-28T15:07:15Z</time>
      </trkpt>
      <trkpt lat="49.64215" lon="4.97791">
        <ele>177.5</ele>
        <time>2020-07-28T15:07:19Z</time>
      </trkpt>
      <trkpt lat="49.64213" lon="4.97797">
        <ele>177.02</ele>
        <time>2020-07-28T15:07:24Z</time>
      </trkpt>
      <trkpt lat="49.64206" lon="4.97808">
        <ele>177.5</ele>
        <time>2020-07-28T15:07:40Z</time>
      </trkpt>
      <trkpt lat="49.64207" lon="4.97808">
        <ele>177.98</ele>
        <time>2020-07-28T15:07:59Z</time>
      </trkpt>
      <trkpt lat="49.64207" lon="4.97809">
        <ele>178.94</ele>
        <time>2020-07-28T15:08:25Z</time>
      </trkpt>
      <trkpt lat="49.64207" lon="4.97809">
        <ele>178.94</ele>
        <time>2020-07-28T15:08:54Z</time>
      </trkpt>
      <trkpt lat="49.64207" lon="4.97809">
        <ele>178.94</ele>
        <time>2020-07-28T15:09:14Z</time>
      </trkpt>
      <trkpt lat="49.64207" lon="4.97809">
        <ele>178.94</ele>
        <time>2020-07-28T15:09:39Z</time>
      </trkpt>
      <trkpt lat="49.64207" lon="4.97809">
        <ele>178.94</ele>
        <time>2020-07-28T15:10:07Z</time>
      </trkpt>
      <trkpt lat="49.64208" lon="4.97809">
        <ele>178.46</ele>
        <time>2020-07-28T15:10:39Z</time>
      </trkpt>
      <trkpt lat="49.64208" lon="4.97809">
        <ele>178.46</ele>
        <time>2020-07-28T15:11:01Z</time>
      </trkpt>
      <trkpt lat="49.64207" lon="4.97808">
        <ele>177.98</ele>
        <time>2020-07-28T15:11:35Z</time>
      </trkpt>
      <trkpt lat="49.64205" lon="4.97813">
        <ele>177.98</ele>
        <time>2020-07-28T15:11:52Z</time>
      </trkpt>
      <trkpt lat="49.64197" lon="4.9782">
        <ele>177.02</ele>
        <time>2020-07-28T15:12:05Z</time>
      </trkpt>
      <trkpt lat="49.64191" lon="4.9782">
        <ele>176.54</ele>
        <time>2020-07-28T15:12:11Z</time>
      </trkpt>
      <trkpt lat="49.64189" lon="4.97817">
        <ele>176.54</ele>
        <time>2020-07-28T15:12:14Z</time>
      </trkpt>
      <trkpt lat="49.6418" lon="4.97802">
        <ele>176.54</ele>
        <time>2020-07-28T15:12:28Z</time>
      </trkpt>
      <trkpt lat="49.64165" lon="4.9778">
        <ele>176.06</ele>
        <time>2020-07-28T15:12:48Z</time>
      </trkpt>
      <trkpt lat="49.64152" lon="4.97764">
        <ele>175.58</ele>
        <time>2020-07-28T15:13:02Z</time>
      </trkpt>
      <trkpt lat="49.6414" lon="4.97744">
        <ele>175.1</ele>
        <time>2020-07-28T15:13:20Z</time>
      </trkpt>
      <trkpt lat="49.64128" lon="4.97727">
        <ele>174.62</ele>
        <time>2020-07-28T15:13:36Z</time>
      </trkpt>
      <trkpt lat="49.64115" lon="4.97705">
        <ele>174.62</ele>
        <time>2020-07-28T15:13:53Z</time>
      </trkpt>
      <trkpt lat="49.64102" lon="4.97684">
        <ele>173.66</ele>
        <time>2020-07-28T15:14:10Z</time>
      </trkpt>
      <trkpt lat="49.64091" lon="4.97662">
        <ele>172.21</ele>
        <time>2020-07-28T15:14:27Z</time>
      </trkpt>
      <trkpt lat="49.64078" lon="4.9764">
        <ele>172.21</ele>
        <time>2020-07-28T15:14:46Z</time>
      </trkpt>
      <trkpt lat="49.64065" lon="4.97613">
        <ele>173.17</ele>
        <time>2020-07-28T15:15:03Z</time>
      </trkpt>
      <trkpt lat="49.64057" lon="4.976">
        <ele>172.69</ele>
        <time>2020-07-28T15:15:17Z</time>
      </trkpt>
      <trkpt lat="49.64054" lon="4.97597">
        <ele>172.21</ele>
        <time>2020-07-28T15:15:21Z</time>
      </trkpt>
      <trkpt lat="49.64032" lon="4.97584">
        <ele>173.17</ele>
        <time>2020-07-28T15:15:40Z</time>
      </trkpt>
      <trkpt lat="49.64013" lon="4.97585">
        <ele>173.17</ele>
        <time>2020-07-28T15:15:58Z</time>
      </trkpt>
      <trkpt lat="49.63994" lon="4.97586">
        <ele>173.17</ele>
        <time>2020-07-28T15:16:14Z</time>
      </trkpt>
      <trkpt lat="49.63978" lon="4.97585">
        <ele>173.66</ele>
        <time>2020-07-28T15:16:29Z</time>
      </trkpt>
      <trkpt lat="49.63961" lon="4.9758">
        <ele>173.17</ele>
        <time>2020-07-28T15:16:45Z</time>
      </trkpt>
      <trkpt lat="49.63941" lon="4.97571">
        <ele>176.06</ele>
        <time>2020-07-28T15:17:03Z</time>
      </trkpt>
      <trkpt lat="49.63926" lon="4.97559">
        <ele>178.46</ele>
        <time>2020-07-28T15:17:20Z</time>
      </trkpt>
      <trkpt lat="49.6391" lon="4.97546">
        <ele>181.35</ele>
        <time>2020-07-28T15:17:37Z</time>
      </trkpt>
      <trkpt lat="49.63893" lon="4.97538">
        <ele>180.38</ele>
        <time>2020-07-28T15:17:54Z</time>
      </trkpt>
      <trkpt lat="49.63877" lon="4.97532">
        <ele>177.5</ele>
        <time>2020-07-28T15:18:11Z</time>
      </trkpt>
      <trkpt lat="49.63862" lon="4.9753">
        <ele>174.62</ele>
        <time>2020-07-28T15:18:26Z</time>
      </trkpt>
      <trkpt lat="49.6385" lon="4.97549">
        <ele>171.73</ele>
        <time>2020-07-28T15:18:45Z</time>
      </trkpt>
      <trkpt lat="49.6385" lon="4.9755">
        <ele>171.73</ele>
        <time>2020-07-28T15:18:46Z</time>
      </trkpt>
      <trkpt lat="49.63844" lon="4.97574">
        <ele>170.29</ele>
        <time>2020-07-28T15:19:04Z</time>
      </trkpt>
      <trkpt lat="49.63841" lon="4.97597">
        <ele>169.33</ele>
        <time>2020-07-28T15:19:21Z</time>
      </trkpt>
      <trkpt lat="49.63834" lon="4.97621">
        <ele>167.41</ele>
        <time>2020-07-28T15:19:36Z</time>
      </trkpt>
      <trkpt lat="49.63828" lon="4.97639">
        <ele>166.93</ele>
        <time>2020-07-28T15:19:54Z</time>
      </trkpt>
      <trkpt lat="49.63819" lon="4.97652">
        <ele>166.45</ele>
        <time>2020-07-28T15:20:11Z</time>
      </trkpt>
      <trkpt lat="49.6381" lon="4.97663">
        <ele>166.93</ele>
        <time>2020-07-28T15:20:26Z</time>
      </trkpt>
      <trkpt lat="49.63801" lon="4.97669">
        <ele>166.93</ele>
        <time>2020-07-28T15:20:37Z</time>
      </trkpt>
      <trkpt lat="49.63782" lon="4.97678">
        <ele>165</ele>
        <time>2020-07-28T15:20:56Z</time>
      </trkpt>
      <trkpt lat="49.63775" lon="4.97678">
        <ele>164.04</ele>
        <time>2020-07-28T15:21:02Z</time>
      </trkpt>
      <trkpt lat="49.63769" lon="4.97678">
        <ele>163.56</ele>
        <time>2020-07-28T15:21:07Z</time>
      </trkpt>
      <trkpt lat="49.63749" lon="4.97676">
        <ele>162.12</ele>
        <time>2020-07-28T15:21:25Z</time>
      </trkpt>
      <trkpt lat="49.63738" lon="4.97677">
        <ele>161.16</ele>
        <time>2020-07-28T15:21:37Z</time>
      </trkpt>
      <trkpt lat="49.63724" lon="4.97672">
        <ele>161.16</ele>
        <time>2020-07-28T15:21:51Z</time>
      </trkpt>
      <trkpt lat="49.63717" lon="4.9767">
        <ele>161.16</ele>
        <time>2020-07-28T15:21:57Z</time>
      </trkpt>
      <trkpt lat="49.637" lon="4.97665">
        <ele>161.16</ele>
        <time>2020-07-28T15:22:14Z</time>
      </trkpt>
      <trkpt lat="49.63683" lon="4.97659">
        <ele>161.64</ele>
        <time>2020-07-28T15:22:30Z</time>
      </trkpt>
      <trkpt lat="49.63668" lon="4.97653">
        <ele>163.56</ele>
        <time>2020-07-28T15:22:45Z</time>
      </trkpt>
      <trkpt lat="49.6365" lon="4.97644">
        <ele>165.96</ele>
        <time>2020-07-28T15:23:02Z</time>
      </trkpt>
      <trkpt lat="49.63637" lon="4.97645">
        <ele>166.45</ele>
        <time>2020-07-28T15:23:15Z</time>
      </trkpt>
      <trkpt lat="49.6362" lon="4.97657">
        <ele>164.04</ele>
        <time>2020-07-28T15:23:34Z</time>
      </trkpt>
      <trkpt lat="49.63602" lon="4.97662">
        <ele>160.2</ele>
        <time>2020-07-28T15:23:50Z</time>
      </trkpt>
      <trkpt lat="49.63587" lon="4.97676">
        <ele>159.24</ele>
        <time>2020-07-28T15:24:07Z</time>
      </trkpt>
      <trkpt lat="49.63575" lon="4.97694">
        <ele>162.6</ele>
        <time>2020-07-28T15:24:22Z</time>
      </trkpt>
      <trkpt lat="49.63562" lon="4.97709">
        <ele>164.04</ele>
        <time>2020-07-28T15:24:39Z</time>
      </trkpt>
      <trkpt lat="49.63546" lon="4.97726">
        <ele>166.93</ele>
        <time>2020-07-28T15:24:56Z</time>
      </trkpt>
      <trkpt lat="49.6354" lon="4.97738">
        <ele>166.93</ele>
        <time>2020-07-28T15:25:04Z</time>
      </trkpt>
      <trkpt lat="49.63531" lon="4.97762">
        <ele>166.93</ele>
        <time>2020-07-28T15:25:23Z</time>
      </trkpt>
      <trkpt lat="49.63518" lon="4.97781">
        <ele>166.45</ele>
        <time>2020-07-28T15:25:40Z</time>
      </trkpt>
      <trkpt lat="49.63506" lon="4.97799">
        <ele>164.52</ele>
        <time>2020-07-28T15:25:56Z</time>
      </trkpt>
      <trkpt lat="49.63496" lon="4.97814">
        <ele>162.6</ele>
        <time>2020-07-28T15:26:10Z</time>
      </trkpt>
      <trkpt lat="49.63482" lon="4.97831">
        <ele>163.08</ele>
        <time>2020-07-28T15:26:26Z</time>
      </trkpt>
      <trkpt lat="49.63477" lon="4.9784">
        <ele>165.48</ele>
        <time>2020-07-28T15:26:35Z</time>
      </trkpt>
      <trkpt lat="49.63464" lon="4.97864">
        <ele>165.48</ele>
        <time>2020-07-28T15:26:53Z</time>
      </trkpt>
      <trkpt lat="49.63462" lon="4.97864">
        <ele>165.48</ele>
        <time>2020-07-28T15:26:55Z</time>
      </trkpt>
      <trkpt lat="49.6346" lon="4.97867">
        <ele>165.48</ele>
        <time>2020-07-28T15:26:57Z</time>
      </trkpt>
      <trkpt lat="49.6345" lon="4.97885">
        <ele>167.89</ele>
        <time>2020-07-28T15:27:12Z</time>
      </trkpt>
      <trkpt lat="49.63448" lon="4.97889">
        <ele>168.37</ele>
        <time>2020-07-28T15:27:16Z</time>
      </trkpt>
      <trkpt lat="49.63445" lon="4.97891">
        <ele>168.37</ele>
        <time>2020-07-28T15:27:19Z</time>
      </trkpt>
      <trkpt lat="49.63431" lon="4.97896">
        <ele>171.73</ele>
        <time>2020-07-28T15:27:35Z</time>
      </trkpt>
      <trkpt lat="49.63414" lon="4.97906">
        <ele>173.17</ele>
        <time>2020-07-28T15:27:53Z</time>
      </trkpt>
      <trkpt lat="49.63399" lon="4.97922">
        <ele>176.06</ele>
        <time>2020-07-28T15:28:11Z</time>
      </trkpt>
      <trkpt lat="49.63395" lon="4.97927">
        <ele>177.98</ele>
        <time>2020-07-28T15:28:27Z</time>
      </trkpt>
      <trkpt lat="49.63394" lon="4.97928">
        <ele>177.5</ele>
        <time>2020-07-28T15:28:35Z</time>
      </trkpt>
      <trkpt lat="49.63388" lon="4.97939">
        <ele>176.06</ele>
        <time>2020-07-28T15:28:43Z</time>
      </trkpt>
      <trkpt lat="49.63388" lon="4.97945">
        <ele>174.62</ele>
        <time>2020-07-28T15:28:48Z</time>
      </trkpt>
      <trkpt lat="49.63391" lon="4.97961">
        <ele>173.17</ele>
        <time>2020-07-28T15:29:02Z</time>
      </trkpt>
      <trkpt lat="49.63395" lon="4.97973">
        <ele>177.02</ele>
        <time>2020-07-28T15:29:17Z</time>
      </trkpt>
      <trkpt lat="49.63397" lon="4.97983">
        <ele>179.9</ele>
        <time>2020-07-28T15:29:24Z</time>
      </trkpt>
      <trkpt lat="49.63407" lon="4.98001">
        <ele>184.71</ele>
        <time>2020-07-28T15:29:40Z</time>
      </trkpt>
      <trkpt lat="49.63409" lon="4.98008">
        <ele>186.15</ele>
        <time>2020-07-28T15:29:46Z</time>
      </trkpt>
      <trkpt lat="49.63416" lon="4.98029">
        <ele>188.08</ele>
        <time>2020-07-28T15:30:01Z</time>
      </trkpt>
      <trkpt lat="49.63428" lon="4.98043">
        <ele>190</ele>
        <time>2020-07-28T15:30:16Z</time>
      </trkpt>
      <trkpt lat="49.6344" lon="4.98054">
        <ele>190.96</ele>
        <time>2020-07-28T15:30:31Z</time>
      </trkpt>
      <trkpt lat="49.63442" lon="4.98056">
        <ele>190.96</ele>
        <time>2020-07-28T15:30:46Z</time>
      </trkpt>
      <trkpt lat="49.63442" lon="4.98056">
        <ele>190.96</ele>
        <time>2020-07-28T15:30:48Z</time>
      </trkpt>
      <trkpt lat="49.63446" lon="4.97996">
        <ele>230.37</ele>
        <time>2020-07-28T15:44:20Z</time>
      </trkpt>
      <trkpt lat="49.63449" lon="4.97995">
        <ele>210.19</ele>
        <time>2020-07-28T15:44:33Z</time>
      </trkpt>
    </trkseg>
  </trk>
</gpx>